<?xml version="1.0" encoding="UTF-8" standalone="no" ?>
<gpx xmlns="http://www.topografix.com/GPX/1/1" xmlns:xsi="http://www.w3.org/2001/XMLSchema-instance" xsi:schemaLocation="http://www.topografix.com/GPX/1/1 http://www.topografix.com/GPX/1/1/gpx.xsd" version="1.1" creator="VisuGPX - https://www.visugpx.com">
  <metadata>
    <name>Crête de la Lare</name>
    <desc><![CDATA[Itinéraire facile et bien arboré.  ]]></desc>
  </metadata>
  <trk>
    <name><![CDATA[Crête de la Lare_1]]></name>
    <trkseg>
      <trkpt lat="43.33962" lon="5.69952">
        <ele>654.8</ele>
        <time>2015-10-14T06:57:21Z</time>
      </trkpt>
      <trkpt lat="43.33962" lon="5.69952">
        <ele>654.8</ele>
        <time>2015-10-14T06:57:22Z</time>
      </trkpt>
      <trkpt lat="43.3398" lon="5.69958">
        <ele>659.5</ele>
        <time>2015-10-14T06:59:45Z</time>
      </trkpt>
      <trkpt lat="43.34001" lon="5.6993">
        <ele>661.4</ele>
        <time>2015-10-14T07:00:33Z</time>
      </trkpt>
      <trkpt lat="43.34002" lon="5.69906">
        <ele>663.4</ele>
        <time>2015-10-14T07:00:52Z</time>
      </trkpt>
      <trkpt lat="43.34003" lon="5.69905">
        <ele>663</ele>
        <time>2015-10-14T07:00:53Z</time>
      </trkpt>
      <trkpt lat="43.34033" lon="5.69884">
        <ele>656.9</ele>
        <time>2015-10-14T07:01:32Z</time>
      </trkpt>
      <trkpt lat="43.34048" lon="5.6987">
        <ele>657.5</ele>
        <time>2015-10-14T07:01:47Z</time>
      </trkpt>
      <trkpt lat="43.34054" lon="5.69848">
        <ele>659</ele>
        <time>2015-10-14T07:02:03Z</time>
      </trkpt>
      <trkpt lat="43.34054" lon="5.69846">
        <ele>658.9</ele>
        <time>2015-10-14T07:02:04Z</time>
      </trkpt>
      <trkpt lat="43.34052" lon="5.698">
        <ele>665.7</ele>
        <time>2015-10-14T07:02:31Z</time>
      </trkpt>
      <trkpt lat="43.3406" lon="5.69779">
        <ele>663.5</ele>
        <time>2015-10-14T07:02:52Z</time>
      </trkpt>
      <trkpt lat="43.34064" lon="5.69755">
        <ele>656.7</ele>
        <time>2015-10-14T07:03:11Z</time>
      </trkpt>
      <trkpt lat="43.34065" lon="5.69754">
        <ele>656.4</ele>
        <time>2015-10-14T07:03:12Z</time>
      </trkpt>
      <trkpt lat="43.34095" lon="5.69768">
        <ele>675.7</ele>
        <time>2015-10-14T07:03:44Z</time>
      </trkpt>
      <trkpt lat="43.34113" lon="5.69776">
        <ele>675.7</ele>
        <time>2015-10-14T07:04:02Z</time>
      </trkpt>
      <trkpt lat="43.3413" lon="5.6978">
        <ele>675.2</ele>
        <time>2015-10-14T07:04:17Z</time>
      </trkpt>
      <trkpt lat="43.34131" lon="5.69781">
        <ele>675.2</ele>
        <time>2015-10-14T07:04:18Z</time>
      </trkpt>
      <trkpt lat="43.3416" lon="5.69803">
        <ele>672.7</ele>
        <time>2015-10-14T07:04:49Z</time>
      </trkpt>
      <trkpt lat="43.34171" lon="5.6982">
        <ele>674</ele>
        <time>2015-10-14T07:05:03Z</time>
      </trkpt>
      <trkpt lat="43.34189" lon="5.69826">
        <ele>670</ele>
        <time>2015-10-14T07:05:21Z</time>
      </trkpt>
      <trkpt lat="43.3419" lon="5.69825">
        <ele>669.2</ele>
        <time>2015-10-14T07:05:22Z</time>
      </trkpt>
      <trkpt lat="43.34218" lon="5.69799">
        <ele>662.5</ele>
        <time>2015-10-14T07:05:55Z</time>
      </trkpt>
      <trkpt lat="43.34223" lon="5.69777">
        <ele>669.5</ele>
        <time>2015-10-14T07:06:09Z</time>
      </trkpt>
      <trkpt lat="43.34216" lon="5.69756">
        <ele>663.4</ele>
        <time>2015-10-14T07:06:24Z</time>
      </trkpt>
      <trkpt lat="43.34215" lon="5.69755">
        <ele>663.9</ele>
        <time>2015-10-14T07:06:25Z</time>
      </trkpt>
      <trkpt lat="43.34201" lon="5.69711">
        <ele>654.5</ele>
        <time>2015-10-14T07:06:59Z</time>
      </trkpt>
      <trkpt lat="43.34197" lon="5.69689">
        <ele>657.7</ele>
        <time>2015-10-14T07:07:15Z</time>
      </trkpt>
      <trkpt lat="43.34193" lon="5.69666">
        <ele>662.2</ele>
        <time>2015-10-14T07:07:31Z</time>
      </trkpt>
      <trkpt lat="43.34194" lon="5.69664">
        <ele>666</ele>
        <time>2015-10-14T07:07:32Z</time>
      </trkpt>
      <trkpt lat="43.34185" lon="5.69621">
        <ele>680.2</ele>
        <time>2015-10-14T07:08:03Z</time>
      </trkpt>
      <trkpt lat="43.34182" lon="5.69597">
        <ele>678.4</ele>
        <time>2015-10-14T07:08:21Z</time>
      </trkpt>
      <trkpt lat="43.34177" lon="5.69575">
        <ele>682.2</ele>
        <time>2015-10-14T07:08:37Z</time>
      </trkpt>
      <trkpt lat="43.34177" lon="5.69573">
        <ele>682.9</ele>
        <time>2015-10-14T07:08:38Z</time>
      </trkpt>
      <trkpt lat="43.34161" lon="5.69533">
        <ele>683.5</ele>
        <time>2015-10-14T07:09:12Z</time>
      </trkpt>
      <trkpt lat="43.34153" lon="5.69512">
        <ele>682.2</ele>
        <time>2015-10-14T07:09:29Z</time>
      </trkpt>
      <trkpt lat="43.34144" lon="5.69491">
        <ele>687.5</ele>
        <time>2015-10-14T07:09:45Z</time>
      </trkpt>
      <trkpt lat="43.34144" lon="5.6949">
        <ele>687.5</ele>
        <time>2015-10-14T07:09:46Z</time>
      </trkpt>
      <trkpt lat="43.34128" lon="5.69448">
        <ele>681.2</ele>
        <time>2015-10-14T07:10:19Z</time>
      </trkpt>
      <trkpt lat="43.34122" lon="5.69426">
        <ele>686.7</ele>
        <time>2015-10-14T07:10:36Z</time>
      </trkpt>
      <trkpt lat="43.34113" lon="5.69405">
        <ele>682.7</ele>
        <time>2015-10-14T07:10:53Z</time>
      </trkpt>
      <trkpt lat="43.34112" lon="5.69404">
        <ele>682.4</ele>
        <time>2015-10-14T07:10:54Z</time>
      </trkpt>
      <trkpt lat="43.34097" lon="5.69361">
        <ele>687.2</ele>
        <time>2015-10-14T07:11:26Z</time>
      </trkpt>
      <trkpt lat="43.34092" lon="5.69338">
        <ele>693.4</ele>
        <time>2015-10-14T07:11:44Z</time>
      </trkpt>
      <trkpt lat="43.34089" lon="5.69314">
        <ele>694.5</ele>
        <time>2015-10-14T07:12:01Z</time>
      </trkpt>
      <trkpt lat="43.34089" lon="5.69313">
        <ele>694.7</ele>
        <time>2015-10-14T07:12:02Z</time>
      </trkpt>
      <trkpt lat="43.34077" lon="5.69269">
        <ele>695.9</ele>
        <time>2015-10-14T07:12:33Z</time>
      </trkpt>
      <trkpt lat="43.34074" lon="5.69246">
        <ele>697</ele>
        <time>2015-10-14T07:12:51Z</time>
      </trkpt>
      <trkpt lat="43.34073" lon="5.69221">
        <ele>698.4</ele>
        <time>2015-10-14T07:13:11Z</time>
      </trkpt>
      <trkpt lat="43.34073" lon="5.6922">
        <ele>698.2</ele>
        <time>2015-10-14T07:13:12Z</time>
      </trkpt>
      <trkpt lat="43.34067" lon="5.69176">
        <ele>703.7</ele>
        <time>2015-10-14T07:13:43Z</time>
      </trkpt>
      <trkpt lat="43.34058" lon="5.69155">
        <ele>702</ele>
        <time>2015-10-14T07:14:00Z</time>
      </trkpt>
      <trkpt lat="43.34047" lon="5.69135">
        <ele>703</ele>
        <time>2015-10-14T07:14:17Z</time>
      </trkpt>
      <trkpt lat="43.34047" lon="5.69134">
        <ele>703</ele>
        <time>2015-10-14T07:14:18Z</time>
      </trkpt>
      <trkpt lat="43.34035" lon="5.69092">
        <ele>705.9</ele>
        <time>2015-10-14T07:14:51Z</time>
      </trkpt>
      <trkpt lat="43.34031" lon="5.69068">
        <ele>704.9</ele>
        <time>2015-10-14T07:15:09Z</time>
      </trkpt>
      <trkpt lat="43.34027" lon="5.69044">
        <ele>702.9</ele>
        <time>2015-10-14T07:15:28Z</time>
      </trkpt>
      <trkpt lat="43.34027" lon="5.69043">
        <ele>703</ele>
        <time>2015-10-14T07:15:29Z</time>
      </trkpt>
      <trkpt lat="43.34008" lon="5.69004">
        <ele>706.2</ele>
        <time>2015-10-14T07:15:59Z</time>
      </trkpt>
      <trkpt lat="43.33998" lon="5.68985">
        <ele>706.2</ele>
        <time>2015-10-14T07:16:16Z</time>
      </trkpt>
      <trkpt lat="43.33986" lon="5.68966">
        <ele>708.7</ele>
        <time>2015-10-14T07:16:32Z</time>
      </trkpt>
      <trkpt lat="43.33986" lon="5.68965">
        <ele>709.2</ele>
        <time>2015-10-14T07:16:33Z</time>
      </trkpt>
      <trkpt lat="43.33966" lon="5.68927">
        <ele>712</ele>
        <time>2015-10-14T07:17:06Z</time>
      </trkpt>
      <trkpt lat="43.33958" lon="5.68906">
        <ele>714.2</ele>
        <time>2015-10-14T07:17:23Z</time>
      </trkpt>
      <trkpt lat="43.33951" lon="5.68883">
        <ele>717.7</ele>
        <time>2015-10-14T07:17:39Z</time>
      </trkpt>
      <trkpt lat="43.3395" lon="5.68882">
        <ele>718.2</ele>
        <time>2015-10-14T07:17:40Z</time>
      </trkpt>
      <trkpt lat="43.33939" lon="5.68838">
        <ele>717.7</ele>
        <time>2015-10-14T07:18:12Z</time>
      </trkpt>
      <trkpt lat="43.33933" lon="5.68815">
        <ele>718.5</ele>
        <time>2015-10-14T07:18:27Z</time>
      </trkpt>
      <trkpt lat="43.33925" lon="5.68793">
        <ele>722.2</ele>
        <time>2015-10-14T07:18:41Z</time>
      </trkpt>
      <trkpt lat="43.33925" lon="5.68791">
        <ele>721.7</ele>
        <time>2015-10-14T07:18:42Z</time>
      </trkpt>
      <trkpt lat="43.33908" lon="5.68753">
        <ele>719.2</ele>
        <time>2015-10-14T07:19:11Z</time>
      </trkpt>
      <trkpt lat="43.339" lon="5.68732">
        <ele>720.4</ele>
        <time>2015-10-14T07:19:26Z</time>
      </trkpt>
      <trkpt lat="43.33897" lon="5.68708">
        <ele>722.7</ele>
        <time>2015-10-14T07:19:43Z</time>
      </trkpt>
      <trkpt lat="43.33897" lon="5.68707">
        <ele>722.7</ele>
        <time>2015-10-14T07:19:44Z</time>
      </trkpt>
      <trkpt lat="43.33906" lon="5.68662">
        <ele>720.7</ele>
        <time>2015-10-14T07:20:16Z</time>
      </trkpt>
      <trkpt lat="43.33915" lon="5.68641">
        <ele>721.2</ele>
        <time>2015-10-14T07:20:32Z</time>
      </trkpt>
      <trkpt lat="43.33919" lon="5.68618">
        <ele>724.4</ele>
        <time>2015-10-14T07:20:49Z</time>
      </trkpt>
      <trkpt lat="43.33919" lon="5.68617">
        <ele>724.7</ele>
        <time>2015-10-14T07:20:50Z</time>
      </trkpt>
      <trkpt lat="43.33927" lon="5.68572">
        <ele>728.5</ele>
        <time>2015-10-14T07:21:23Z</time>
      </trkpt>
      <trkpt lat="43.33934" lon="5.6855">
        <ele>729.9</ele>
        <time>2015-10-14T07:21:41Z</time>
      </trkpt>
      <trkpt lat="43.33939" lon="5.68527">
        <ele>733</ele>
        <time>2015-10-14T07:21:57Z</time>
      </trkpt>
      <trkpt lat="43.33939" lon="5.68525">
        <ele>733.5</ele>
        <time>2015-10-14T07:21:58Z</time>
      </trkpt>
      <trkpt lat="43.33954" lon="5.68485">
        <ele>735.7</ele>
        <time>2015-10-14T07:22:30Z</time>
      </trkpt>
      <trkpt lat="43.33966" lon="5.68467">
        <ele>738.2</ele>
        <time>2015-10-14T07:22:46Z</time>
      </trkpt>
      <trkpt lat="43.33971" lon="5.68444">
        <ele>739.7</ele>
        <time>2015-10-14T07:23:03Z</time>
      </trkpt>
      <trkpt lat="43.33971" lon="5.68443">
        <ele>740</ele>
        <time>2015-10-14T07:23:04Z</time>
      </trkpt>
      <trkpt lat="43.33966" lon="5.68397">
        <ele>737.7</ele>
        <time>2015-10-14T07:23:40Z</time>
      </trkpt>
      <trkpt lat="43.33963" lon="5.68374">
        <ele>736.4</ele>
        <time>2015-10-14T07:23:55Z</time>
      </trkpt>
      <trkpt lat="43.33979" lon="5.68368">
        <ele>744.2</ele>
        <time>2015-10-14T07:30:44Z</time>
      </trkpt>
      <trkpt lat="43.3398" lon="5.68368">
        <ele>744.2</ele>
        <time>2015-10-14T07:30:45Z</time>
      </trkpt>
      <trkpt lat="43.34011" lon="5.68387">
        <ele>744.7</ele>
        <time>2015-10-14T07:31:23Z</time>
      </trkpt>
      <trkpt lat="43.34027" lon="5.68397">
        <ele>745.2</ele>
        <time>2015-10-14T07:31:42Z</time>
      </trkpt>
      <trkpt lat="43.34042" lon="5.6841">
        <ele>745</ele>
        <time>2015-10-14T07:31:59Z</time>
      </trkpt>
      <trkpt lat="43.34043" lon="5.68411">
        <ele>745.2</ele>
        <time>2015-10-14T07:32:00Z</time>
      </trkpt>
      <trkpt lat="43.34065" lon="5.68444">
        <ele>745.5</ele>
        <time>2015-10-14T07:32:32Z</time>
      </trkpt>
      <trkpt lat="43.34078" lon="5.68462">
        <ele>748.5</ele>
        <time>2015-10-14T07:32:49Z</time>
      </trkpt>
      <trkpt lat="43.3409" lon="5.68478">
        <ele>749.7</ele>
        <time>2015-10-14T07:33:06Z</time>
      </trkpt>
      <trkpt lat="43.34091" lon="5.68479">
        <ele>750</ele>
        <time>2015-10-14T07:33:07Z</time>
      </trkpt>
      <trkpt lat="43.34115" lon="5.68514">
        <ele>752.2</ele>
        <time>2015-10-14T07:33:45Z</time>
      </trkpt>
      <trkpt lat="43.341" lon="5.68526">
        <ele>756.7</ele>
        <time>2015-10-14T07:34:18Z</time>
      </trkpt>
      <trkpt lat="43.34099" lon="5.68525">
        <ele>756.7</ele>
        <time>2015-10-14T07:34:19Z</time>
      </trkpt>
      <trkpt lat="43.34067" lon="5.6851">
        <ele>755.5</ele>
        <time>2015-10-14T07:34:54Z</time>
      </trkpt>
      <trkpt lat="43.34051" lon="5.68502">
        <ele>759</ele>
        <time>2015-10-14T07:35:12Z</time>
      </trkpt>
      <trkpt lat="43.34034" lon="5.68498">
        <ele>762</ele>
        <time>2015-10-14T07:35:30Z</time>
      </trkpt>
      <trkpt lat="43.34033" lon="5.68497">
        <ele>762.2</ele>
        <time>2015-10-14T07:35:31Z</time>
      </trkpt>
      <trkpt lat="43.34001" lon="5.68501">
        <ele>766.5</ele>
        <time>2015-10-14T07:36:06Z</time>
      </trkpt>
      <trkpt lat="43.34013" lon="5.68518">
        <ele>771.9</ele>
        <time>2015-10-14T07:36:41Z</time>
      </trkpt>
      <trkpt lat="43.34014" lon="5.68518">
        <ele>771.9</ele>
        <time>2015-10-14T07:36:42Z</time>
      </trkpt>
      <trkpt lat="43.34036" lon="5.68551">
        <ele>773.5</ele>
        <time>2015-10-14T07:37:19Z</time>
      </trkpt>
      <trkpt lat="43.34045" lon="5.68572">
        <ele>775.2</ele>
        <time>2015-10-14T07:37:38Z</time>
      </trkpt>
      <trkpt lat="43.34055" lon="5.68593">
        <ele>776.7</ele>
        <time>2015-10-14T07:37:57Z</time>
      </trkpt>
      <trkpt lat="43.34056" lon="5.68594">
        <ele>776.9</ele>
        <time>2015-10-14T07:37:58Z</time>
      </trkpt>
      <trkpt lat="43.34076" lon="5.68632">
        <ele>779.5</ele>
        <time>2015-10-14T07:38:35Z</time>
      </trkpt>
      <trkpt lat="43.34086" lon="5.68652">
        <ele>783.5</ele>
        <time>2015-10-14T07:38:52Z</time>
      </trkpt>
      <trkpt lat="43.34093" lon="5.68674">
        <ele>785.7</ele>
        <time>2015-10-14T07:39:09Z</time>
      </trkpt>
      <trkpt lat="43.34093" lon="5.68675">
        <ele>785.9</ele>
        <time>2015-10-14T07:39:10Z</time>
      </trkpt>
      <trkpt lat="43.34106" lon="5.68718">
        <ele>789.2</ele>
        <time>2015-10-14T07:39:43Z</time>
      </trkpt>
      <trkpt lat="43.34113" lon="5.6874">
        <ele>792</ele>
        <time>2015-10-14T07:39:59Z</time>
      </trkpt>
      <trkpt lat="43.3412" lon="5.68761">
        <ele>791.9</ele>
        <time>2015-10-14T07:40:16Z</time>
      </trkpt>
      <trkpt lat="43.34121" lon="5.68762">
        <ele>791.9</ele>
        <time>2015-10-14T07:40:17Z</time>
      </trkpt>
      <trkpt lat="43.34134" lon="5.68805">
        <ele>791.4</ele>
        <time>2015-10-14T07:40:48Z</time>
      </trkpt>
      <trkpt lat="43.34143" lon="5.68827">
        <ele>792</ele>
        <time>2015-10-14T07:41:04Z</time>
      </trkpt>
      <trkpt lat="43.34152" lon="5.68847">
        <ele>793.2</ele>
        <time>2015-10-14T07:47:04Z</time>
      </trkpt>
      <trkpt lat="43.34153" lon="5.68848">
        <ele>793.2</ele>
        <time>2015-10-14T07:47:05Z</time>
      </trkpt>
      <trkpt lat="43.34177" lon="5.68881">
        <ele>791.7</ele>
        <time>2015-10-14T07:47:50Z</time>
      </trkpt>
      <trkpt lat="43.34189" lon="5.68898">
        <ele>793.5</ele>
        <time>2015-10-14T07:51:38Z</time>
      </trkpt>
      <trkpt lat="43.3419" lon="5.689">
        <ele>793.5</ele>
        <time>2015-10-14T07:51:39Z</time>
      </trkpt>
      <trkpt lat="43.34206" lon="5.68938">
        <ele>793.4</ele>
        <time>2015-10-14T07:52:07Z</time>
      </trkpt>
      <trkpt lat="43.34214" lon="5.68959">
        <ele>792.7</ele>
        <time>2015-10-14T07:52:28Z</time>
      </trkpt>
      <trkpt lat="43.34226" lon="5.68976">
        <ele>796.7</ele>
        <time>2015-10-14T07:52:47Z</time>
      </trkpt>
      <trkpt lat="43.34227" lon="5.68977">
        <ele>797</ele>
        <time>2015-10-14T07:52:48Z</time>
      </trkpt>
      <trkpt lat="43.3425" lon="5.69012">
        <ele>799.2</ele>
        <time>2015-10-14T07:53:22Z</time>
      </trkpt>
      <trkpt lat="43.34259" lon="5.69032">
        <ele>800</ele>
        <time>2015-10-14T07:53:37Z</time>
      </trkpt>
      <trkpt lat="43.34268" lon="5.69052">
        <ele>800</ele>
        <time>2015-10-14T07:53:52Z</time>
      </trkpt>
      <trkpt lat="43.34268" lon="5.69053">
        <ele>799.9</ele>
        <time>2015-10-14T07:53:53Z</time>
      </trkpt>
      <trkpt lat="43.34289" lon="5.69092">
        <ele>798.5</ele>
        <time>2015-10-14T07:54:25Z</time>
      </trkpt>
      <trkpt lat="43.34299" lon="5.69111">
        <ele>795</ele>
        <time>2015-10-14T07:54:41Z</time>
      </trkpt>
      <trkpt lat="43.34307" lon="5.69133">
        <ele>797</ele>
        <time>2015-10-14T07:54:57Z</time>
      </trkpt>
      <trkpt lat="43.34308" lon="5.69134">
        <ele>797</ele>
        <time>2015-10-14T07:54:58Z</time>
      </trkpt>
      <trkpt lat="43.3433" lon="5.6917">
        <ele>794.5</ele>
        <time>2015-10-14T07:55:28Z</time>
      </trkpt>
      <trkpt lat="43.34339" lon="5.69189">
        <ele>796.4</ele>
        <time>2015-10-14T07:55:44Z</time>
      </trkpt>
      <trkpt lat="43.34348" lon="5.69211">
        <ele>799.5</ele>
        <time>2015-10-14T07:56:02Z</time>
      </trkpt>
      <trkpt lat="43.34349" lon="5.69212">
        <ele>799.5</ele>
        <time>2015-10-14T07:56:03Z</time>
      </trkpt>
      <trkpt lat="43.34368" lon="5.69251">
        <ele>800</ele>
        <time>2015-10-14T07:56:36Z</time>
      </trkpt>
      <trkpt lat="43.34377" lon="5.69271">
        <ele>801.4</ele>
        <time>2015-10-14T07:56:52Z</time>
      </trkpt>
      <trkpt lat="43.34388" lon="5.6929">
        <ele>802.7</ele>
        <time>2015-10-14T07:57:09Z</time>
      </trkpt>
      <trkpt lat="43.34389" lon="5.69291">
        <ele>802.7</ele>
        <time>2015-10-14T07:57:10Z</time>
      </trkpt>
      <trkpt lat="43.34413" lon="5.69324">
        <ele>804</ele>
        <time>2015-10-14T07:57:43Z</time>
      </trkpt>
      <trkpt lat="43.34425" lon="5.69343">
        <ele>804.7</ele>
        <time>2015-10-14T07:58:00Z</time>
      </trkpt>
      <trkpt lat="43.34437" lon="5.6936">
        <ele>806.4</ele>
        <time>2015-10-14T07:58:18Z</time>
      </trkpt>
      <trkpt lat="43.34438" lon="5.69361">
        <ele>806.2</ele>
        <time>2015-10-14T07:58:19Z</time>
      </trkpt>
      <trkpt lat="43.34462" lon="5.69393">
        <ele>804.2</ele>
        <time>2015-10-14T07:58:51Z</time>
      </trkpt>
      <trkpt lat="43.34473" lon="5.69412">
        <ele>807</ele>
        <time>2015-10-14T07:59:40Z</time>
      </trkpt>
      <trkpt lat="43.34474" lon="5.69413">
        <ele>807</ele>
        <time>2015-10-14T07:59:41Z</time>
      </trkpt>
      <trkpt lat="43.34496" lon="5.69446">
        <ele>805.7</ele>
        <time>2015-10-14T08:00:07Z</time>
      </trkpt>
      <trkpt lat="43.3451" lon="5.69461">
        <ele>805.7</ele>
        <time>2015-10-14T08:00:20Z</time>
      </trkpt>
      <trkpt lat="43.34521" lon="5.69479">
        <ele>806.5</ele>
        <time>2015-10-14T08:00:33Z</time>
      </trkpt>
      <trkpt lat="43.34532" lon="5.69497">
        <ele>810.2</ele>
        <time>2015-10-14T08:00:45Z</time>
      </trkpt>
      <trkpt lat="43.34533" lon="5.69498">
        <ele>810.5</ele>
        <time>2015-10-14T08:00:46Z</time>
      </trkpt>
      <trkpt lat="43.34561" lon="5.69524">
        <ele>811.7</ele>
        <time>2015-10-14T08:01:14Z</time>
      </trkpt>
      <trkpt lat="43.34577" lon="5.69535">
        <ele>814.5</ele>
        <time>2015-10-14T08:01:28Z</time>
      </trkpt>
      <trkpt lat="43.34592" lon="5.69546">
        <ele>815.9</ele>
        <time>2015-10-14T08:01:41Z</time>
      </trkpt>
      <trkpt lat="43.34607" lon="5.6956">
        <ele>817.5</ele>
        <time>2015-10-14T08:01:55Z</time>
      </trkpt>
      <trkpt lat="43.34608" lon="5.69561">
        <ele>817.5</ele>
        <time>2015-10-14T08:01:56Z</time>
      </trkpt>
      <trkpt lat="43.34638" lon="5.69584">
        <ele>815.7</ele>
        <time>2015-10-14T08:02:29Z</time>
      </trkpt>
      <trkpt lat="43.34653" lon="5.69596">
        <ele>817.9</ele>
        <time>2015-10-14T08:02:43Z</time>
      </trkpt>
      <trkpt lat="43.34668" lon="5.69606">
        <ele>815.7</ele>
        <time>2015-10-14T08:02:57Z</time>
      </trkpt>
      <trkpt lat="43.3467" lon="5.69608">
        <ele>816</ele>
        <time>2015-10-14T08:02:58Z</time>
      </trkpt>
      <trkpt lat="43.34697" lon="5.69634">
        <ele>821.2</ele>
        <time>2015-10-14T08:03:30Z</time>
      </trkpt>
      <trkpt lat="43.34712" lon="5.69647">
        <ele>824.2</ele>
        <time>2015-10-14T08:03:50Z</time>
      </trkpt>
      <trkpt lat="43.34722" lon="5.69667">
        <ele>826</ele>
        <time>2015-10-14T08:04:08Z</time>
      </trkpt>
      <trkpt lat="43.34722" lon="5.69668">
        <ele>826.2</ele>
        <time>2015-10-14T08:04:09Z</time>
      </trkpt>
      <trkpt lat="43.34747" lon="5.697">
        <ele>826.7</ele>
        <time>2015-10-14T08:04:44Z</time>
      </trkpt>
      <trkpt lat="43.34762" lon="5.69714">
        <ele>831.2</ele>
        <time>2015-10-14T08:05:01Z</time>
      </trkpt>
      <trkpt lat="43.34779" lon="5.69719">
        <ele>839.5</ele>
        <time>2015-10-14T08:05:22Z</time>
      </trkpt>
      <trkpt lat="43.3478" lon="5.69719">
        <ele>839.4</ele>
        <time>2015-10-14T08:05:23Z</time>
      </trkpt>
      <trkpt lat="43.3481" lon="5.69735">
        <ele>839</ele>
        <time>2015-10-14T08:06:00Z</time>
      </trkpt>
      <trkpt lat="43.34824" lon="5.69751">
        <ele>841.5</ele>
        <time>2015-10-14T08:06:20Z</time>
      </trkpt>
      <trkpt lat="43.3484" lon="5.69762">
        <ele>843.7</ele>
        <time>2015-10-14T08:15:38Z</time>
      </trkpt>
      <trkpt lat="43.3484" lon="5.69762">
        <ele>843.5</ele>
        <time>2015-10-14T08:15:39Z</time>
      </trkpt>
      <trkpt lat="43.34864" lon="5.69796">
        <ele>837.5</ele>
        <time>2015-10-14T08:16:36Z</time>
      </trkpt>
      <trkpt lat="43.34876" lon="5.69815">
        <ele>837.7</ele>
        <time>2015-10-14T08:17:06Z</time>
      </trkpt>
      <trkpt lat="43.34876" lon="5.69815">
        <ele>837.5</ele>
        <time>2015-10-14T08:17:07Z</time>
      </trkpt>
      <trkpt lat="43.34887" lon="5.69834">
        <ele>838.4</ele>
        <time>2015-10-14T08:18:14Z</time>
      </trkpt>
      <trkpt lat="43.34908" lon="5.6987">
        <ele>835.2</ele>
        <time>2015-10-14T08:18:59Z</time>
      </trkpt>
      <trkpt lat="43.34921" lon="5.69887">
        <ele>833.7</ele>
        <time>2015-10-14T08:19:16Z</time>
      </trkpt>
      <trkpt lat="43.34922" lon="5.69888">
        <ele>833.9</ele>
        <time>2015-10-14T08:19:17Z</time>
      </trkpt>
      <trkpt lat="43.34944" lon="5.69925">
        <ele>832.7</ele>
        <time>2015-10-14T08:19:56Z</time>
      </trkpt>
      <trkpt lat="43.34956" lon="5.69942">
        <ele>833.4</ele>
        <time>2015-10-14T08:20:21Z</time>
      </trkpt>
      <trkpt lat="43.34956" lon="5.69943">
        <ele>833.5</ele>
        <time>2015-10-14T08:20:22Z</time>
      </trkpt>
      <trkpt lat="43.34984" lon="5.69972">
        <ele>835.7</ele>
        <time>2015-10-14T08:23:00Z</time>
      </trkpt>
      <trkpt lat="43.34984" lon="5.69972">
        <ele>835.7</ele>
        <time>2015-10-14T08:23:01Z</time>
      </trkpt>
      <trkpt lat="43.35012" lon="5.69999">
        <ele>832</ele>
        <time>2015-10-14T08:23:49Z</time>
      </trkpt>
      <trkpt lat="43.35027" lon="5.70013">
        <ele>832.7</ele>
        <time>2015-10-14T08:24:08Z</time>
      </trkpt>
      <trkpt lat="43.35027" lon="5.70014">
        <ele>832.7</ele>
        <time>2015-10-14T08:24:09Z</time>
      </trkpt>
      <trkpt lat="43.35057" lon="5.70038">
        <ele>829.7</ele>
        <time>2015-10-14T08:24:53Z</time>
      </trkpt>
      <trkpt lat="43.35073" lon="5.70045">
        <ele>828.4</ele>
        <time>2015-10-14T08:25:12Z</time>
      </trkpt>
      <trkpt lat="43.35074" lon="5.70046">
        <ele>828.5</ele>
        <time>2015-10-14T08:25:13Z</time>
      </trkpt>
      <trkpt lat="43.35107" lon="5.70055">
        <ele>827.7</ele>
        <time>2015-10-14T08:25:53Z</time>
      </trkpt>
      <trkpt lat="43.35121" lon="5.7007">
        <ele>824.2</ele>
        <time>2015-10-14T08:26:11Z</time>
      </trkpt>
      <trkpt lat="43.35135" lon="5.70084">
        <ele>824</ele>
        <time>2015-10-14T08:26:31Z</time>
      </trkpt>
      <trkpt lat="43.35135" lon="5.70085">
        <ele>824.4</ele>
        <time>2015-10-14T08:26:32Z</time>
      </trkpt>
      <trkpt lat="43.35163" lon="5.70113">
        <ele>818.7</ele>
        <time>2015-10-14T08:27:24Z</time>
      </trkpt>
      <trkpt lat="43.35175" lon="5.70131">
        <ele>813</ele>
        <time>2015-10-14T08:27:52Z</time>
      </trkpt>
      <trkpt lat="43.35175" lon="5.70132">
        <ele>813</ele>
        <time>2015-10-14T08:27:53Z</time>
      </trkpt>
      <trkpt lat="43.35205" lon="5.70156">
        <ele>805.7</ele>
        <time>2015-10-14T08:28:47Z</time>
      </trkpt>
      <trkpt lat="43.3522" lon="5.70171">
        <ele>801.2</ele>
        <time>2015-10-14T08:29:11Z</time>
      </trkpt>
      <trkpt lat="43.3522" lon="5.70172">
        <ele>801</ele>
        <time>2015-10-14T08:29:12Z</time>
      </trkpt>
      <trkpt lat="43.35252" lon="5.70192">
        <ele>792.2</ele>
        <time>2015-10-14T08:30:12Z</time>
      </trkpt>
      <trkpt lat="43.35252" lon="5.70193">
        <ele>792.4</ele>
        <time>2015-10-14T08:30:13Z</time>
      </trkpt>
      <trkpt lat="43.35279" lon="5.70223">
        <ele>780.7</ele>
        <time>2015-10-14T08:31:13Z</time>
      </trkpt>
      <trkpt lat="43.3528" lon="5.70223">
        <ele>780.7</ele>
        <time>2015-10-14T08:31:14Z</time>
      </trkpt>
      <trkpt lat="43.35311" lon="5.70235">
        <ele>776</ele>
        <time>2015-10-14T08:32:15Z</time>
      </trkpt>
      <trkpt lat="43.35312" lon="5.70236">
        <ele>776.2</ele>
        <time>2015-10-14T08:32:16Z</time>
      </trkpt>
      <trkpt lat="43.35332" lon="5.70273">
        <ele>764.4</ele>
        <time>2015-10-14T08:34:37Z</time>
      </trkpt>
      <trkpt lat="43.35332" lon="5.70274">
        <ele>764.2</ele>
        <time>2015-10-14T08:34:38Z</time>
      </trkpt>
      <trkpt lat="43.35364" lon="5.70293">
        <ele>750.2</ele>
        <time>2015-10-14T08:35:53Z</time>
      </trkpt>
      <trkpt lat="43.35364" lon="5.70294">
        <ele>750.2</ele>
        <time>2015-10-14T08:35:54Z</time>
      </trkpt>
      <trkpt lat="43.35389" lon="5.70326">
        <ele>735.5</ele>
        <time>2015-10-14T08:37:01Z</time>
      </trkpt>
      <trkpt lat="43.3539" lon="5.70327">
        <ele>735.2</ele>
        <time>2015-10-14T08:37:02Z</time>
      </trkpt>
      <trkpt lat="43.35417" lon="5.70355">
        <ele>731.5</ele>
        <time>2015-10-14T08:38:06Z</time>
      </trkpt>
      <trkpt lat="43.35418" lon="5.70356">
        <ele>731.4</ele>
        <time>2015-10-14T08:38:07Z</time>
      </trkpt>
      <trkpt lat="43.35432" lon="5.70371">
        <ele>725.7</ele>
        <time>2015-10-14T08:40:52Z</time>
      </trkpt>
      <trkpt lat="43.35449" lon="5.70363">
        <ele>723</ele>
        <time>2015-10-14T08:42:26Z</time>
      </trkpt>
      <trkpt lat="43.35449" lon="5.70362">
        <ele>724.2</ele>
        <time>2015-10-14T08:42:27Z</time>
      </trkpt>
      <trkpt lat="43.35452" lon="5.70338">
        <ele>716.5</ele>
        <time>2015-10-14T08:43:31Z</time>
      </trkpt>
      <trkpt lat="43.35448" lon="5.70293">
        <ele>705.7</ele>
        <time>2015-10-14T08:44:38Z</time>
      </trkpt>
      <trkpt lat="43.35448" lon="5.70292">
        <ele>706.4</ele>
        <time>2015-10-14T08:44:39Z</time>
      </trkpt>
      <trkpt lat="43.35433" lon="5.7025">
        <ele>686.5</ele>
        <time>2015-10-14T08:45:55Z</time>
      </trkpt>
      <trkpt lat="43.35433" lon="5.70249">
        <ele>687</ele>
        <time>2015-10-14T08:45:56Z</time>
      </trkpt>
      <trkpt lat="43.35438" lon="5.70208">
        <ele>692.4</ele>
        <time>2015-10-14T08:46:34Z</time>
      </trkpt>
      <trkpt lat="43.35436" lon="5.70183">
        <ele>690.5</ele>
        <time>2015-10-14T08:46:57Z</time>
      </trkpt>
      <trkpt lat="43.35437" lon="5.70182">
        <ele>690.7</ele>
        <time>2015-10-14T08:46:58Z</time>
      </trkpt>
      <trkpt lat="43.3544" lon="5.70135">
        <ele>678.5</ele>
        <time>2015-10-14T08:48:05Z</time>
      </trkpt>
      <trkpt lat="43.3544" lon="5.70135">
        <ele>678.4</ele>
        <time>2015-10-14T08:48:06Z</time>
      </trkpt>
      <trkpt lat="43.3546" lon="5.70097">
        <ele>664.5</ele>
        <time>2015-10-14T08:49:41Z</time>
      </trkpt>
      <trkpt lat="43.35461" lon="5.70096">
        <ele>664.7</ele>
        <time>2015-10-14T08:49:42Z</time>
      </trkpt>
      <trkpt lat="43.35485" lon="5.70062">
        <ele>656.5</ele>
        <time>2015-10-14T08:51:13Z</time>
      </trkpt>
      <trkpt lat="43.35485" lon="5.70062">
        <ele>656.7</ele>
        <time>2015-10-14T08:51:14Z</time>
      </trkpt>
      <trkpt lat="43.35503" lon="5.70068">
        <ele>636.2</ele>
        <time>2015-10-14T08:55:37Z</time>
      </trkpt>
      <trkpt lat="43.35515" lon="5.70112">
        <ele>629.5</ele>
        <time>2015-10-14T08:56:23Z</time>
      </trkpt>
      <trkpt lat="43.35519" lon="5.70136">
        <ele>623.2</ele>
        <time>2015-10-14T08:56:45Z</time>
      </trkpt>
      <trkpt lat="43.3552" lon="5.70137">
        <ele>623</ele>
        <time>2015-10-14T08:56:46Z</time>
      </trkpt>
      <trkpt lat="43.35541" lon="5.70167">
        <ele>612</ele>
        <time>2015-10-14T08:57:47Z</time>
      </trkpt>
      <trkpt lat="43.35542" lon="5.70167">
        <ele>611.7</ele>
        <time>2015-10-14T08:57:48Z</time>
      </trkpt>
      <trkpt lat="43.35576" lon="5.70164">
        <ele>607.4</ele>
        <time>2015-10-14T08:58:35Z</time>
      </trkpt>
      <trkpt lat="43.35588" lon="5.70145">
        <ele>600.5</ele>
        <time>2015-10-14T08:59:10Z</time>
      </trkpt>
      <trkpt lat="43.35588" lon="5.70145">
        <ele>600.5</ele>
        <time>2015-10-14T08:59:11Z</time>
      </trkpt>
      <trkpt lat="43.35601" lon="5.70114">
        <ele>591.7</ele>
        <time>2015-10-14T09:00:19Z</time>
      </trkpt>
      <trkpt lat="43.35602" lon="5.70114">
        <ele>591.5</ele>
        <time>2015-10-14T09:00:20Z</time>
      </trkpt>
      <trkpt lat="43.3561" lon="5.70067">
        <ele>576.5</ele>
        <time>2015-10-14T09:01:29Z</time>
      </trkpt>
      <trkpt lat="43.3561" lon="5.70066">
        <ele>576.5</ele>
        <time>2015-10-14T09:01:30Z</time>
      </trkpt>
      <trkpt lat="43.35635" lon="5.70032">
        <ele>558.4</ele>
        <time>2015-10-14T09:02:40Z</time>
      </trkpt>
      <trkpt lat="43.35635" lon="5.70031">
        <ele>557.9</ele>
        <time>2015-10-14T09:02:41Z</time>
      </trkpt>
      <trkpt lat="43.3566" lon="5.69997">
        <ele>544</ele>
        <time>2015-10-14T09:04:04Z</time>
      </trkpt>
      <trkpt lat="43.3566" lon="5.69997">
        <ele>543.5</ele>
        <time>2015-10-14T09:04:05Z</time>
      </trkpt>
      <trkpt lat="43.35667" lon="5.69974">
        <ele>536</ele>
        <time>2015-10-14T09:05:22Z</time>
      </trkpt>
      <trkpt lat="43.35694" lon="5.69954">
        <ele>514.7</ele>
        <time>2015-10-14T09:06:43Z</time>
      </trkpt>
      <trkpt lat="43.35695" lon="5.69953">
        <ele>514.5</ele>
        <time>2015-10-14T09:06:44Z</time>
      </trkpt>
      <trkpt lat="43.35713" lon="5.69915">
        <ele>497.7</ele>
        <time>2015-10-14T09:07:35Z</time>
      </trkpt>
      <trkpt lat="43.35719" lon="5.69892">
        <ele>496.8</ele>
        <time>2015-10-14T09:07:55Z</time>
      </trkpt>
      <trkpt lat="43.35719" lon="5.69891">
        <ele>496.7</ele>
        <time>2015-10-14T09:07:56Z</time>
      </trkpt>
      <trkpt lat="43.35736" lon="5.69851">
        <ele>485.7</ele>
        <time>2015-10-14T09:08:39Z</time>
      </trkpt>
      <trkpt lat="43.35742" lon="5.69828">
        <ele>476.2</ele>
        <time>2015-10-14T09:09:02Z</time>
      </trkpt>
      <trkpt lat="43.35743" lon="5.69828">
        <ele>476</ele>
        <time>2015-10-14T09:09:03Z</time>
      </trkpt>
      <trkpt lat="43.35763" lon="5.6979">
        <ele>471.2</ele>
        <time>2015-10-14T09:09:46Z</time>
      </trkpt>
      <trkpt lat="43.35781" lon="5.69785">
        <ele>476</ele>
        <time>2015-10-14T09:10:23Z</time>
      </trkpt>
      <trkpt lat="43.35781" lon="5.69785">
        <ele>475.8</ele>
        <time>2015-10-14T09:10:24Z</time>
      </trkpt>
      <trkpt lat="43.35811" lon="5.69763">
        <ele>465.2</ele>
        <time>2015-10-14T09:11:13Z</time>
      </trkpt>
      <trkpt lat="43.35824" lon="5.69747">
        <ele>456.7</ele>
        <time>2015-10-14T09:11:36Z</time>
      </trkpt>
      <trkpt lat="43.35825" lon="5.69746">
        <ele>456.2</ele>
        <time>2015-10-14T09:11:37Z</time>
      </trkpt>
      <trkpt lat="43.3585" lon="5.69712">
        <ele>454.2</ele>
        <time>2015-10-14T09:12:12Z</time>
      </trkpt>
      <trkpt lat="43.35858" lon="5.69691">
        <ele>455.7</ele>
        <time>2015-10-14T09:12:39Z</time>
      </trkpt>
      <trkpt lat="43.35858" lon="5.6969">
        <ele>455.6</ele>
        <time>2015-10-14T09:12:40Z</time>
      </trkpt>
      <trkpt lat="43.35857" lon="5.69666">
        <ele>457.6</ele>
        <time>2015-10-14T09:15:41Z</time>
      </trkpt>
      <trkpt lat="43.35875" lon="5.69676">
        <ele>457.1</ele>
        <time>2015-10-14T09:20:26Z</time>
      </trkpt>
      <trkpt lat="43.35871" lon="5.69651">
        <ele>457.5</ele>
        <time>2015-10-14T09:21:35Z</time>
      </trkpt>
      <trkpt lat="43.35905" lon="5.69666">
        <ele>443.2</ele>
        <time>2015-10-14T09:22:14Z</time>
      </trkpt>
      <trkpt lat="43.35922" lon="5.6967">
        <ele>440.7</ele>
        <time>2015-10-14T09:22:29Z</time>
      </trkpt>
      <trkpt lat="43.35937" lon="5.69683">
        <ele>439.7</ele>
        <time>2015-10-14T09:22:45Z</time>
      </trkpt>
      <trkpt lat="43.35938" lon="5.69684">
        <ele>439.3</ele>
        <time>2015-10-14T09:22:46Z</time>
      </trkpt>
      <trkpt lat="43.35958" lon="5.6972">
        <ele>437.7</ele>
        <time>2015-10-14T09:23:15Z</time>
      </trkpt>
      <trkpt lat="43.35964" lon="5.69743">
        <ele>437.6</ele>
        <time>2015-10-14T09:23:30Z</time>
      </trkpt>
      <trkpt lat="43.35968" lon="5.69766">
        <ele>439.3</ele>
        <time>2015-10-14T09:23:44Z</time>
      </trkpt>
      <trkpt lat="43.35977" lon="5.69787">
        <ele>440.6</ele>
        <time>2015-10-14T09:24:01Z</time>
      </trkpt>
      <trkpt lat="43.35978" lon="5.69788">
        <ele>439.2</ele>
        <time>2015-10-14T09:24:02Z</time>
      </trkpt>
      <trkpt lat="43.36007" lon="5.69814">
        <ele>425.3</ele>
        <time>2015-10-14T09:24:35Z</time>
      </trkpt>
      <trkpt lat="43.3602" lon="5.69829">
        <ele>423</ele>
        <time>2015-10-14T09:24:51Z</time>
      </trkpt>
      <trkpt lat="43.36035" lon="5.69839">
        <ele>421.7</ele>
        <time>2015-10-14T09:25:07Z</time>
      </trkpt>
      <trkpt lat="43.36036" lon="5.6984">
        <ele>421.7</ele>
        <time>2015-10-14T09:25:08Z</time>
      </trkpt>
      <trkpt lat="43.36064" lon="5.69868">
        <ele>419.8</ele>
        <time>2015-10-14T09:25:37Z</time>
      </trkpt>
      <trkpt lat="43.36077" lon="5.69884">
        <ele>417.2</ele>
        <time>2015-10-14T09:25:52Z</time>
      </trkpt>
      <trkpt lat="43.3609" lon="5.699">
        <ele>417.8</ele>
        <time>2015-10-14T09:26:08Z</time>
      </trkpt>
      <trkpt lat="43.36092" lon="5.69901">
        <ele>417.7</ele>
        <time>2015-10-14T09:26:09Z</time>
      </trkpt>
      <trkpt lat="43.36124" lon="5.69914">
        <ele>411.2</ele>
        <time>2015-10-14T09:26:40Z</time>
      </trkpt>
      <trkpt lat="43.36138" lon="5.69928">
        <ele>409.5</ele>
        <time>2015-10-14T09:27:04Z</time>
      </trkpt>
      <trkpt lat="43.36149" lon="5.69946">
        <ele>408.7</ele>
        <time>2015-10-14T09:27:20Z</time>
      </trkpt>
      <trkpt lat="43.36151" lon="5.69946">
        <ele>409.2</ele>
        <time>2015-10-14T09:27:21Z</time>
      </trkpt>
      <trkpt lat="43.36183" lon="5.69961">
        <ele>411.1</ele>
        <time>2015-10-14T09:27:55Z</time>
      </trkpt>
      <trkpt lat="43.36196" lon="5.69978">
        <ele>409.5</ele>
        <time>2015-10-14T09:28:12Z</time>
      </trkpt>
      <trkpt lat="43.36201" lon="5.70001">
        <ele>411.1</ele>
        <time>2015-10-14T09:28:29Z</time>
      </trkpt>
      <trkpt lat="43.36201" lon="5.70003">
        <ele>411.2</ele>
        <time>2015-10-14T09:28:30Z</time>
      </trkpt>
      <trkpt lat="43.36203" lon="5.70026">
        <ele>414.7</ele>
        <time>2015-10-14T09:29:50Z</time>
      </trkpt>
      <trkpt lat="43.36216" lon="5.70069">
        <ele>415.7</ele>
        <time>2015-10-14T09:30:20Z</time>
      </trkpt>
      <trkpt lat="43.36227" lon="5.70088">
        <ele>414.3</ele>
        <time>2015-10-14T09:30:34Z</time>
      </trkpt>
      <trkpt lat="43.36232" lon="5.70111">
        <ele>413.5</ele>
        <time>2015-10-14T09:30:48Z</time>
      </trkpt>
      <trkpt lat="43.36227" lon="5.70134">
        <ele>412.8</ele>
        <time>2015-10-14T09:31:04Z</time>
      </trkpt>
      <trkpt lat="43.36226" lon="5.70135">
        <ele>412.5</ele>
        <time>2015-10-14T09:31:05Z</time>
      </trkpt>
      <trkpt lat="43.36197" lon="5.70158">
        <ele>405.6</ele>
        <time>2015-10-14T09:31:37Z</time>
      </trkpt>
      <trkpt lat="43.36198" lon="5.70182">
        <ele>411.6</ele>
        <time>2015-10-14T09:31:54Z</time>
      </trkpt>
      <trkpt lat="43.3621" lon="5.702">
        <ele>419.5</ele>
        <time>2015-10-14T09:32:11Z</time>
      </trkpt>
      <trkpt lat="43.36211" lon="5.70201">
        <ele>419.7</ele>
        <time>2015-10-14T09:32:12Z</time>
      </trkpt>
      <trkpt lat="43.3623" lon="5.70238">
        <ele>421.3</ele>
        <time>2015-10-14T09:32:41Z</time>
      </trkpt>
      <trkpt lat="43.36237" lon="5.7026">
        <ele>424.6</ele>
        <time>2015-10-14T09:32:57Z</time>
      </trkpt>
      <trkpt lat="43.36242" lon="5.70283">
        <ele>420.3</ele>
        <time>2015-10-14T09:33:11Z</time>
      </trkpt>
      <trkpt lat="43.36248" lon="5.70305">
        <ele>421.6</ele>
        <time>2015-10-14T09:33:26Z</time>
      </trkpt>
      <trkpt lat="43.36248" lon="5.70306">
        <ele>421.7</ele>
        <time>2015-10-14T09:33:27Z</time>
      </trkpt>
      <trkpt lat="43.36268" lon="5.70343">
        <ele>423.5</ele>
        <time>2015-10-14T09:33:55Z</time>
      </trkpt>
      <trkpt lat="43.36276" lon="5.70363">
        <ele>422.2</ele>
        <time>2015-10-14T09:34:11Z</time>
      </trkpt>
      <trkpt lat="43.36286" lon="5.70384">
        <ele>421.2</ele>
        <time>2015-10-14T09:34:27Z</time>
      </trkpt>
      <trkpt lat="43.36287" lon="5.70386">
        <ele>420.2</ele>
        <time>2015-10-14T09:34:28Z</time>
      </trkpt>
      <trkpt lat="43.36314" lon="5.70413">
        <ele>422.7</ele>
        <time>2015-10-14T09:34:56Z</time>
      </trkpt>
      <trkpt lat="43.36328" lon="5.70427">
        <ele>426.6</ele>
        <time>2015-10-14T09:35:11Z</time>
      </trkpt>
      <trkpt lat="43.36339" lon="5.70447">
        <ele>426.6</ele>
        <time>2015-10-14T09:35:26Z</time>
      </trkpt>
      <trkpt lat="43.36348" lon="5.70466">
        <ele>429.5</ele>
        <time>2015-10-14T09:35:40Z</time>
      </trkpt>
      <trkpt lat="43.36349" lon="5.70467">
        <ele>430.1</ele>
        <time>2015-10-14T09:35:41Z</time>
      </trkpt>
      <trkpt lat="43.36366" lon="5.70506">
        <ele>438.2</ele>
        <time>2015-10-14T09:36:10Z</time>
      </trkpt>
      <trkpt lat="43.36372" lon="5.70529">
        <ele>438.3</ele>
        <time>2015-10-14T09:36:25Z</time>
      </trkpt>
      <trkpt lat="43.36375" lon="5.70553">
        <ele>438.3</ele>
        <time>2015-10-14T09:36:40Z</time>
      </trkpt>
      <trkpt lat="43.36378" lon="5.70576">
        <ele>438.2</ele>
        <time>2015-10-14T09:36:55Z</time>
      </trkpt>
      <trkpt lat="43.36378" lon="5.70578">
        <ele>438.1</ele>
        <time>2015-10-14T09:36:56Z</time>
      </trkpt>
      <trkpt lat="43.36366" lon="5.70619">
        <ele>434.5</ele>
        <time>2015-10-14T09:37:26Z</time>
      </trkpt>
      <trkpt lat="43.36354" lon="5.70637">
        <ele>431.7</ele>
        <time>2015-10-14T09:37:44Z</time>
      </trkpt>
      <trkpt lat="43.36354" lon="5.70661">
        <ele>433</ele>
        <time>2015-10-14T09:38:00Z</time>
      </trkpt>
      <trkpt lat="43.36354" lon="5.70662">
        <ele>433.2</ele>
        <time>2015-10-14T09:38:01Z</time>
      </trkpt>
      <trkpt lat="43.3634" lon="5.70704">
        <ele>435.1</ele>
        <time>2015-10-14T09:38:35Z</time>
      </trkpt>
      <trkpt lat="43.36323" lon="5.70712">
        <ele>435.2</ele>
        <time>2015-10-14T09:38:50Z</time>
      </trkpt>
      <trkpt lat="43.36313" lon="5.70731">
        <ele>433.3</ele>
        <time>2015-10-14T09:39:06Z</time>
      </trkpt>
      <trkpt lat="43.36313" lon="5.70732">
        <ele>433.2</ele>
        <time>2015-10-14T09:39:07Z</time>
      </trkpt>
      <trkpt lat="43.36328" lon="5.70774">
        <ele>437.6</ele>
        <time>2015-10-14T09:39:36Z</time>
      </trkpt>
      <trkpt lat="43.36336" lon="5.70795">
        <ele>439.7</ele>
        <time>2015-10-14T09:39:50Z</time>
      </trkpt>
      <trkpt lat="43.36344" lon="5.70817">
        <ele>443.3</ele>
        <time>2015-10-14T09:40:04Z</time>
      </trkpt>
      <trkpt lat="43.36352" lon="5.70838">
        <ele>447.1</ele>
        <time>2015-10-14T09:40:19Z</time>
      </trkpt>
      <trkpt lat="43.36353" lon="5.70839">
        <ele>447.3</ele>
        <time>2015-10-14T09:40:20Z</time>
      </trkpt>
      <trkpt lat="43.36366" lon="5.7088">
        <ele>447.5</ele>
        <time>2015-10-14T09:40:49Z</time>
      </trkpt>
      <trkpt lat="43.36372" lon="5.70903">
        <ele>445.8</ele>
        <time>2015-10-14T09:41:04Z</time>
      </trkpt>
      <trkpt lat="43.36376" lon="5.70925">
        <ele>444.7</ele>
        <time>2015-10-14T09:41:18Z</time>
      </trkpt>
      <trkpt lat="43.36382" lon="5.70949">
        <ele>445.2</ele>
        <time>2015-10-14T09:41:33Z</time>
      </trkpt>
      <trkpt lat="43.36382" lon="5.7095">
        <ele>445.5</ele>
        <time>2015-10-14T09:41:34Z</time>
      </trkpt>
      <trkpt lat="43.36391" lon="5.70994">
        <ele>451.6</ele>
        <time>2015-10-14T09:42:01Z</time>
      </trkpt>
      <trkpt lat="43.36394" lon="5.71019">
        <ele>449.2</ele>
        <time>2015-10-14T09:42:16Z</time>
      </trkpt>
      <trkpt lat="43.36394" lon="5.71042">
        <ele>450.6</ele>
        <time>2015-10-14T09:42:31Z</time>
      </trkpt>
      <trkpt lat="43.36392" lon="5.71067">
        <ele>452.1</ele>
        <time>2015-10-14T09:42:46Z</time>
      </trkpt>
      <trkpt lat="43.36392" lon="5.71068">
        <ele>452.2</ele>
        <time>2015-10-14T09:42:47Z</time>
      </trkpt>
      <trkpt lat="43.3639" lon="5.71115">
        <ele>451.7</ele>
        <time>2015-10-14T09:43:16Z</time>
      </trkpt>
      <trkpt lat="43.36388" lon="5.71139">
        <ele>457.8</ele>
        <time>2015-10-14T09:43:30Z</time>
      </trkpt>
      <trkpt lat="43.36386" lon="5.71163">
        <ele>455.6</ele>
        <time>2015-10-14T09:43:46Z</time>
      </trkpt>
      <trkpt lat="43.36382" lon="5.71186">
        <ele>451.2</ele>
        <time>2015-10-14T09:44:01Z</time>
      </trkpt>
      <trkpt lat="43.36382" lon="5.71188">
        <ele>451.5</ele>
        <time>2015-10-14T09:44:02Z</time>
      </trkpt>
      <trkpt lat="43.36362" lon="5.71226">
        <ele>449.3</ele>
        <time>2015-10-14T09:44:33Z</time>
      </trkpt>
      <trkpt lat="43.3635" lon="5.71244">
        <ele>443.8</ele>
        <time>2015-10-14T09:44:48Z</time>
      </trkpt>
      <trkpt lat="43.36336" lon="5.71259">
        <ele>437.8</ele>
        <time>2015-10-14T09:45:04Z</time>
      </trkpt>
      <trkpt lat="43.36335" lon="5.7126">
        <ele>437.7</ele>
        <time>2015-10-14T09:45:05Z</time>
      </trkpt>
      <trkpt lat="43.3631" lon="5.7129">
        <ele>429.7</ele>
        <time>2015-10-14T09:45:35Z</time>
      </trkpt>
      <trkpt lat="43.36319" lon="5.71311">
        <ele>443.5</ele>
        <time>2015-10-14T09:45:54Z</time>
      </trkpt>
      <trkpt lat="43.36337" lon="5.71314">
        <ele>460.1</ele>
        <time>2015-10-14T09:46:09Z</time>
      </trkpt>
      <trkpt lat="43.36338" lon="5.71314">
        <ele>460.8</ele>
        <time>2015-10-14T09:46:10Z</time>
      </trkpt>
      <trkpt lat="43.36371" lon="5.7132">
        <ele>466.5</ele>
        <time>2015-10-14T09:46:39Z</time>
      </trkpt>
      <trkpt lat="43.36384" lon="5.71335">
        <ele>460.1</ele>
        <time>2015-10-14T09:46:55Z</time>
      </trkpt>
      <trkpt lat="43.36387" lon="5.71359">
        <ele>451.6</ele>
        <time>2015-10-14T09:47:12Z</time>
      </trkpt>
      <trkpt lat="43.36386" lon="5.71361">
        <ele>450.7</ele>
        <time>2015-10-14T09:47:13Z</time>
      </trkpt>
      <trkpt lat="43.36371" lon="5.71401">
        <ele>436.5</ele>
        <time>2015-10-14T09:47:43Z</time>
      </trkpt>
      <trkpt lat="43.3636" lon="5.71419">
        <ele>432</ele>
        <time>2015-10-14T09:47:58Z</time>
      </trkpt>
      <trkpt lat="43.36348" lon="5.71437">
        <ele>427.2</ele>
        <time>2015-10-14T09:48:15Z</time>
      </trkpt>
      <trkpt lat="43.36348" lon="5.71439">
        <ele>426.8</ele>
        <time>2015-10-14T09:48:16Z</time>
      </trkpt>
      <trkpt lat="43.36359" lon="5.71481">
        <ele>436.6</ele>
        <time>2015-10-14T09:48:46Z</time>
      </trkpt>
      <trkpt lat="43.36374" lon="5.71492">
        <ele>450.7</ele>
        <time>2015-10-14T09:48:59Z</time>
      </trkpt>
      <trkpt lat="43.3639" lon="5.71502">
        <ele>452.6</ele>
        <time>2015-10-14T09:49:14Z</time>
      </trkpt>
      <trkpt lat="43.36406" lon="5.71512">
        <ele>449.2</ele>
        <time>2015-10-14T09:49:30Z</time>
      </trkpt>
      <trkpt lat="43.36407" lon="5.71512">
        <ele>449.2</ele>
        <time>2015-10-14T09:49:31Z</time>
      </trkpt>
      <trkpt lat="43.36425" lon="5.71548">
        <ele>449.7</ele>
        <time>2015-10-14T09:50:00Z</time>
      </trkpt>
      <trkpt lat="43.36419" lon="5.71572">
        <ele>438.8</ele>
        <time>2015-10-14T09:50:17Z</time>
      </trkpt>
      <trkpt lat="43.3642" lon="5.71596">
        <ele>433.7</ele>
        <time>2015-10-14T09:50:38Z</time>
      </trkpt>
      <trkpt lat="43.3642" lon="5.71598">
        <ele>433.7</ele>
        <time>2015-10-14T09:50:39Z</time>
      </trkpt>
      <trkpt lat="43.36432" lon="5.71641">
        <ele>430.8</ele>
        <time>2015-10-14T09:51:08Z</time>
      </trkpt>
      <trkpt lat="43.36433" lon="5.71666">
        <ele>433.5</ele>
        <time>2015-10-14T09:51:32Z</time>
      </trkpt>
      <trkpt lat="43.3643" lon="5.7169">
        <ele>426.8</ele>
        <time>2015-10-14T09:51:54Z</time>
      </trkpt>
      <trkpt lat="43.3643" lon="5.71692">
        <ele>426.3</ele>
        <time>2015-10-14T09:51:55Z</time>
      </trkpt>
      <trkpt lat="43.36428" lon="5.71739">
        <ele>421.2</ele>
        <time>2015-10-14T09:52:26Z</time>
      </trkpt>
      <trkpt lat="43.36426" lon="5.71763">
        <ele>445.8</ele>
        <time>2015-10-14T09:53:28Z</time>
      </trkpt>
      <trkpt lat="43.36426" lon="5.71763">
        <ele>446</ele>
        <time>2015-10-14T09:53:29Z</time>
      </trkpt>
      <trkpt lat="43.36415" lon="5.71784">
        <ele>425.3</ele>
        <time>2015-10-14T09:56:35Z</time>
      </trkpt>
      <trkpt lat="43.3639" lon="5.71812">
        <ele>398.8</ele>
        <time>2015-10-14T09:57:09Z</time>
      </trkpt>
      <trkpt lat="43.36372" lon="5.71815">
        <ele>400.7</ele>
        <time>2015-10-14T09:57:25Z</time>
      </trkpt>
      <trkpt lat="43.36355" lon="5.71812">
        <ele>410.1</ele>
        <time>2015-10-14T09:57:39Z</time>
      </trkpt>
      <trkpt lat="43.36354" lon="5.71812">
        <ele>410.7</ele>
        <time>2015-10-14T09:57:40Z</time>
      </trkpt>
      <trkpt lat="43.36325" lon="5.71826">
        <ele>417.2</ele>
        <time>2015-10-14T09:58:06Z</time>
      </trkpt>
      <trkpt lat="43.36312" lon="5.71842">
        <ele>424.2</ele>
        <time>2015-10-14T09:58:19Z</time>
      </trkpt>
      <trkpt lat="43.36307" lon="5.71864">
        <ele>421.2</ele>
        <time>2015-10-14T09:58:35Z</time>
      </trkpt>
      <trkpt lat="43.36313" lon="5.71886">
        <ele>419.6</ele>
        <time>2015-10-14T09:58:49Z</time>
      </trkpt>
      <trkpt lat="43.36314" lon="5.71887">
        <ele>419.2</ele>
        <time>2015-10-14T09:58:50Z</time>
      </trkpt>
      <trkpt lat="43.36321" lon="5.71933">
        <ele>407.3</ele>
        <time>2015-10-14T09:59:20Z</time>
      </trkpt>
      <trkpt lat="43.36317" lon="5.71956">
        <ele>400</ele>
        <time>2015-10-14T09:59:35Z</time>
      </trkpt>
      <trkpt lat="43.36312" lon="5.71978">
        <ele>399.8</ele>
        <time>2015-10-14T09:59:50Z</time>
      </trkpt>
      <trkpt lat="43.36311" lon="5.71979">
        <ele>398.8</ele>
        <time>2015-10-14T09:59:51Z</time>
      </trkpt>
      <trkpt lat="43.36291" lon="5.72015">
        <ele>388</ele>
        <time>2015-10-14T10:00:14Z</time>
      </trkpt>
      <trkpt lat="43.36275" lon="5.72022">
        <ele>387</ele>
        <time>2015-10-14T10:00:27Z</time>
      </trkpt>
      <trkpt lat="43.36259" lon="5.72026">
        <ele>392.3</ele>
        <time>2015-10-14T10:00:40Z</time>
      </trkpt>
      <trkpt lat="43.36242" lon="5.72027">
        <ele>394.7</ele>
        <time>2015-10-14T10:00:54Z</time>
      </trkpt>
      <trkpt lat="43.36241" lon="5.72028">
        <ele>394.6</ele>
        <time>2015-10-14T10:00:55Z</time>
      </trkpt>
      <trkpt lat="43.36208" lon="5.72029">
        <ele>397.5</ele>
        <time>2015-10-14T10:01:23Z</time>
      </trkpt>
      <trkpt lat="43.36191" lon="5.72028">
        <ele>398.7</ele>
        <time>2015-10-14T10:01:36Z</time>
      </trkpt>
      <trkpt lat="43.36174" lon="5.72025">
        <ele>397.7</ele>
        <time>2015-10-14T10:01:50Z</time>
      </trkpt>
      <trkpt lat="43.36159" lon="5.7204">
        <ele>399</ele>
        <time>2015-10-14T10:02:09Z</time>
      </trkpt>
      <trkpt lat="43.3616" lon="5.72042">
        <ele>400.2</ele>
        <time>2015-10-14T10:02:10Z</time>
      </trkpt>
      <trkpt lat="43.36189" lon="5.72064">
        <ele>428.2</ele>
        <time>2015-10-14T10:02:36Z</time>
      </trkpt>
      <trkpt lat="43.36205" lon="5.72073">
        <ele>434.2</ele>
        <time>2015-10-14T10:02:47Z</time>
      </trkpt>
      <trkpt lat="43.36222" lon="5.72078">
        <ele>427.7</ele>
        <time>2015-10-14T10:03:02Z</time>
      </trkpt>
      <trkpt lat="43.36238" lon="5.72083">
        <ele>419.3</ele>
        <time>2015-10-14T10:03:16Z</time>
      </trkpt>
      <trkpt lat="43.36239" lon="5.72084">
        <ele>419.7</ele>
        <time>2015-10-14T10:03:17Z</time>
      </trkpt>
      <trkpt lat="43.36271" lon="5.72096">
        <ele>410.8</ele>
        <time>2015-10-14T10:03:44Z</time>
      </trkpt>
      <trkpt lat="43.36288" lon="5.72097">
        <ele>409.2</ele>
        <time>2015-10-14T10:03:59Z</time>
      </trkpt>
      <trkpt lat="43.36305" lon="5.72093">
        <ele>411.8</ele>
        <time>2015-10-14T10:04:15Z</time>
      </trkpt>
      <trkpt lat="43.36322" lon="5.72089">
        <ele>410.2</ele>
        <time>2015-10-14T10:04:32Z</time>
      </trkpt>
      <trkpt lat="43.36324" lon="5.72088">
        <ele>409.7</ele>
        <time>2015-10-14T10:04:33Z</time>
      </trkpt>
      <trkpt lat="43.36352" lon="5.72066">
        <ele>402.6</ele>
        <time>2015-10-14T10:05:02Z</time>
      </trkpt>
      <trkpt lat="43.36363" lon="5.72047">
        <ele>399.7</ele>
        <time>2015-10-14T10:05:18Z</time>
      </trkpt>
      <trkpt lat="43.36371" lon="5.72026">
        <ele>400.7</ele>
        <time>2015-10-14T10:05:32Z</time>
      </trkpt>
      <trkpt lat="43.3638" lon="5.72006">
        <ele>400.5</ele>
        <time>2015-10-14T10:05:47Z</time>
      </trkpt>
      <trkpt lat="43.36381" lon="5.72005">
        <ele>400.5</ele>
        <time>2015-10-14T10:05:48Z</time>
      </trkpt>
      <trkpt lat="43.36412" lon="5.71984">
        <ele>405.2</ele>
        <time>2015-10-14T10:06:17Z</time>
      </trkpt>
      <trkpt lat="43.36428" lon="5.71978">
        <ele>406.2</ele>
        <time>2015-10-14T10:06:32Z</time>
      </trkpt>
      <trkpt lat="43.36445" lon="5.71973">
        <ele>411.1</ele>
        <time>2015-10-14T10:06:45Z</time>
      </trkpt>
      <trkpt lat="43.36462" lon="5.7197">
        <ele>407.2</ele>
        <time>2015-10-14T10:06:57Z</time>
      </trkpt>
      <trkpt lat="43.36464" lon="5.71971">
        <ele>407.2</ele>
        <time>2015-10-14T10:06:58Z</time>
      </trkpt>
      <trkpt lat="43.36494" lon="5.71986">
        <ele>407.8</ele>
        <time>2015-10-14T10:07:24Z</time>
      </trkpt>
      <trkpt lat="43.3651" lon="5.71999">
        <ele>403.7</ele>
        <time>2015-10-14T10:07:38Z</time>
      </trkpt>
      <trkpt lat="43.36526" lon="5.72007">
        <ele>396.2</ele>
        <time>2015-10-14T10:07:53Z</time>
      </trkpt>
      <trkpt lat="43.36543" lon="5.72012">
        <ele>396.1</ele>
        <time>2015-10-14T10:08:05Z</time>
      </trkpt>
      <trkpt lat="43.36544" lon="5.72013">
        <ele>396.2</ele>
        <time>2015-10-14T10:08:06Z</time>
      </trkpt>
      <trkpt lat="43.36574" lon="5.72036">
        <ele>397.8</ele>
        <time>2015-10-14T10:08:31Z</time>
      </trkpt>
      <trkpt lat="43.3659" lon="5.72045">
        <ele>400.1</ele>
        <time>2015-10-14T10:08:46Z</time>
      </trkpt>
      <trkpt lat="43.36607" lon="5.72051">
        <ele>395.1</ele>
        <time>2015-10-14T10:09:02Z</time>
      </trkpt>
      <trkpt lat="43.36624" lon="5.72051">
        <ele>391.6</ele>
        <time>2015-10-14T10:09:17Z</time>
      </trkpt>
      <trkpt lat="43.36625" lon="5.72051">
        <ele>391.2</ele>
        <time>2015-10-14T10:09:18Z</time>
      </trkpt>
      <trkpt lat="43.36659" lon="5.72041">
        <ele>387</ele>
        <time>2015-10-14T10:09:44Z</time>
      </trkpt>
      <trkpt lat="43.36676" lon="5.72041">
        <ele>385.2</ele>
        <time>2015-10-14T10:09:58Z</time>
      </trkpt>
      <trkpt lat="43.36693" lon="5.72044">
        <ele>383.3</ele>
        <time>2015-10-14T10:10:10Z</time>
      </trkpt>
      <trkpt lat="43.3671" lon="5.72049">
        <ele>381.2</ele>
        <time>2015-10-14T10:10:22Z</time>
      </trkpt>
      <trkpt lat="43.36711" lon="5.72049">
        <ele>381.1</ele>
        <time>2015-10-14T10:10:23Z</time>
      </trkpt>
      <trkpt lat="43.36743" lon="5.72063">
        <ele>370.5</ele>
        <time>2015-10-14T10:10:58Z</time>
      </trkpt>
      <trkpt lat="43.3676" lon="5.72071">
        <ele>369.3</ele>
        <time>2015-10-14T10:11:11Z</time>
      </trkpt>
      <trkpt lat="43.36776" lon="5.72082">
        <ele>369.2</ele>
        <time>2015-10-14T10:11:25Z</time>
      </trkpt>
      <trkpt lat="43.36777" lon="5.72082">
        <ele>369.3</ele>
        <time>2015-10-14T10:11:26Z</time>
      </trkpt>
      <trkpt lat="43.36804" lon="5.7211">
        <ele>364.5</ele>
        <time>2015-10-14T10:12:08Z</time>
      </trkpt>
      <trkpt lat="43.36815" lon="5.72128">
        <ele>364.2</ele>
        <time>2015-10-14T10:12:30Z</time>
      </trkpt>
      <trkpt lat="43.36816" lon="5.72129">
        <ele>364.2</ele>
        <time>2015-10-14T10:12:31Z</time>
      </trkpt>
      <trkpt lat="43.36819" lon="5.72136">
        <ele>355.2</ele>
        <time>2015-10-14T10:15:40Z</time>
      </trkpt>
      <trkpt lat="43.36819" lon="5.72136">
        <ele>355.1</ele>
        <time>2015-10-14T10:15:41Z</time>
      </trkpt>
      <trkpt lat="43.36796" lon="5.7217">
        <ele>348.7</ele>
        <time>2015-10-14T10:16:19Z</time>
      </trkpt>
      <trkpt lat="43.3678" lon="5.7218">
        <ele>354.7</ele>
        <time>2015-10-14T10:16:37Z</time>
      </trkpt>
      <trkpt lat="43.36765" lon="5.72193">
        <ele>364.7</ele>
        <time>2015-10-14T10:17:16Z</time>
      </trkpt>
      <trkpt lat="43.36765" lon="5.72193">
        <ele>365.1</ele>
        <time>2015-10-14T10:17:17Z</time>
      </trkpt>
      <trkpt lat="43.36744" lon="5.72229">
        <ele>365.3</ele>
        <time>2015-10-14T10:17:44Z</time>
      </trkpt>
      <trkpt lat="43.36736" lon="5.7225">
        <ele>358.1</ele>
        <time>2015-10-14T10:17:59Z</time>
      </trkpt>
      <trkpt lat="43.36729" lon="5.72272">
        <ele>351.7</ele>
        <time>2015-10-14T10:18:14Z</time>
      </trkpt>
      <trkpt lat="43.36722" lon="5.72293">
        <ele>355.8</ele>
        <time>2015-10-14T10:18:31Z</time>
      </trkpt>
      <trkpt lat="43.36721" lon="5.72294">
        <ele>356.2</ele>
        <time>2015-10-14T10:18:32Z</time>
      </trkpt>
      <trkpt lat="43.36704" lon="5.72333">
        <ele>348.1</ele>
        <time>2015-10-14T10:18:59Z</time>
      </trkpt>
      <trkpt lat="43.36699" lon="5.72356">
        <ele>344.8</ele>
        <time>2015-10-14T10:19:12Z</time>
      </trkpt>
      <trkpt lat="43.36694" lon="5.72378">
        <ele>348.5</ele>
        <time>2015-10-14T10:19:28Z</time>
      </trkpt>
      <trkpt lat="43.36689" lon="5.72402">
        <ele>346.7</ele>
        <time>2015-10-14T10:19:44Z</time>
      </trkpt>
      <trkpt lat="43.36689" lon="5.72403">
        <ele>346.7</ele>
        <time>2015-10-14T10:19:45Z</time>
      </trkpt>
      <trkpt lat="43.36672" lon="5.72445">
        <ele>358.3</ele>
        <time>2015-10-14T10:20:17Z</time>
      </trkpt>
      <trkpt lat="43.36666" lon="5.72467">
        <ele>361.2</ele>
        <time>2015-10-14T10:20:35Z</time>
      </trkpt>
      <trkpt lat="43.36665" lon="5.72491">
        <ele>359.2</ele>
        <time>2015-10-14T10:20:52Z</time>
      </trkpt>
      <trkpt lat="43.36665" lon="5.72493">
        <ele>358.5</ele>
        <time>2015-10-14T10:20:53Z</time>
      </trkpt>
      <trkpt lat="43.36658" lon="5.72539">
        <ele>352.2</ele>
        <time>2015-10-14T10:21:52Z</time>
      </trkpt>
      <trkpt lat="43.36658" lon="5.72564">
        <ele>362.2</ele>
        <time>2015-10-14T10:24:32Z</time>
      </trkpt>
      <trkpt lat="43.36657" lon="5.72565">
        <ele>362.5</ele>
        <time>2015-10-14T10:24:33Z</time>
      </trkpt>
      <trkpt lat="43.36647" lon="5.72609">
        <ele>349.7</ele>
        <time>2015-10-14T10:25:23Z</time>
      </trkpt>
      <trkpt lat="43.36649" lon="5.72634">
        <ele>348.8</ele>
        <time>2015-10-14T10:26:02Z</time>
      </trkpt>
      <trkpt lat="43.3665" lon="5.72635">
        <ele>348.3</ele>
        <time>2015-10-14T10:26:03Z</time>
      </trkpt>
      <trkpt lat="43.36657" lon="5.72679">
        <ele>350.7</ele>
        <time>2015-10-14T10:26:33Z</time>
      </trkpt>
      <trkpt lat="43.36655" lon="5.72702">
        <ele>354.7</ele>
        <time>2015-10-14T10:26:48Z</time>
      </trkpt>
      <trkpt lat="43.36646" lon="5.72722">
        <ele>351</ele>
        <time>2015-10-14T10:27:04Z</time>
      </trkpt>
      <trkpt lat="43.36646" lon="5.72723">
        <ele>350.7</ele>
        <time>2015-10-14T10:27:05Z</time>
      </trkpt>
      <trkpt lat="43.36624" lon="5.72761">
        <ele>360.6</ele>
        <time>2015-10-14T10:27:40Z</time>
      </trkpt>
      <trkpt lat="43.36615" lon="5.72781">
        <ele>357.8</ele>
        <time>2015-10-14T10:27:56Z</time>
      </trkpt>
      <trkpt lat="43.36609" lon="5.72804">
        <ele>360.1</ele>
        <time>2015-10-14T10:28:14Z</time>
      </trkpt>
      <trkpt lat="43.36609" lon="5.72805">
        <ele>360.5</ele>
        <time>2015-10-14T10:28:15Z</time>
      </trkpt>
      <trkpt lat="43.36596" lon="5.72848">
        <ele>362.5</ele>
        <time>2015-10-14T10:28:54Z</time>
      </trkpt>
      <trkpt lat="43.36591" lon="5.7287">
        <ele>357</ele>
        <time>2015-10-14T10:29:38Z</time>
      </trkpt>
      <trkpt lat="43.3659" lon="5.72872">
        <ele>355.2</ele>
        <time>2015-10-14T10:29:39Z</time>
      </trkpt>
      <trkpt lat="43.36587" lon="5.72917">
        <ele>352.6</ele>
        <time>2015-10-14T10:30:12Z</time>
      </trkpt>
      <trkpt lat="43.36583" lon="5.72941">
        <ele>350.2</ele>
        <time>2015-10-14T10:30:27Z</time>
      </trkpt>
      <trkpt lat="43.36577" lon="5.72964">
        <ele>342.7</ele>
        <time>2015-10-14T10:30:42Z</time>
      </trkpt>
      <trkpt lat="43.36577" lon="5.72966">
        <ele>342.3</ele>
        <time>2015-10-14T10:30:43Z</time>
      </trkpt>
      <trkpt lat="43.36563" lon="5.73008">
        <ele>351.2</ele>
        <time>2015-10-14T10:31:14Z</time>
      </trkpt>
      <trkpt lat="43.36552" lon="5.73025">
        <ele>355.1</ele>
        <time>2015-10-14T10:31:24Z</time>
      </trkpt>
      <trkpt lat="43.3654" lon="5.73041">
        <ele>359.7</ele>
        <time>2015-10-14T10:31:36Z</time>
      </trkpt>
      <trkpt lat="43.36526" lon="5.73054">
        <ele>360.1</ele>
        <time>2015-10-14T10:31:49Z</time>
      </trkpt>
      <trkpt lat="43.36525" lon="5.73055">
        <ele>360.2</ele>
        <time>2015-10-14T10:31:50Z</time>
      </trkpt>
      <trkpt lat="43.36493" lon="5.73065">
        <ele>367.7</ele>
        <time>2015-10-14T10:32:40Z</time>
      </trkpt>
      <trkpt lat="43.36486" lon="5.73044">
        <ele>371.2</ele>
        <time>2015-10-14T10:33:57Z</time>
      </trkpt>
      <trkpt lat="43.36486" lon="5.73042">
        <ele>371.7</ele>
        <time>2015-10-14T10:33:58Z</time>
      </trkpt>
    </trkseg>
  </trk>
  <trk>
    <name><![CDATA[Crête de la Lare_2]]></name>
    <trkseg>
      <trkpt lat="43.36471" lon="5.73009">
        <ele>383.8</ele>
        <time>2015-10-14T11:40:39Z</time>
      </trkpt>
      <trkpt lat="43.36472" lon="5.73008">
        <ele>383.8</ele>
        <time>2015-10-14T11:40:40Z</time>
      </trkpt>
      <trkpt lat="43.36453" lon="5.73006">
        <ele>373.1</ele>
        <time>2015-10-14T11:44:26Z</time>
      </trkpt>
      <trkpt lat="43.36427" lon="5.73034">
        <ele>379.2</ele>
        <time>2015-10-14T11:45:20Z</time>
      </trkpt>
      <trkpt lat="43.36418" lon="5.73055">
        <ele>373.8</ele>
        <time>2015-10-14T11:45:44Z</time>
      </trkpt>
      <trkpt lat="43.36417" lon="5.73056">
        <ele>374.5</ele>
        <time>2015-10-14T11:45:45Z</time>
      </trkpt>
      <trkpt lat="43.36397" lon="5.73094">
        <ele>375.2</ele>
        <time>2015-10-14T11:46:23Z</time>
      </trkpt>
      <trkpt lat="43.36382" lon="5.73105">
        <ele>379.5</ele>
        <time>2015-10-14T11:46:39Z</time>
      </trkpt>
      <trkpt lat="43.36367" lon="5.73116">
        <ele>387</ele>
        <time>2015-10-14T11:46:53Z</time>
      </trkpt>
      <trkpt lat="43.36366" lon="5.73117">
        <ele>386.5</ele>
        <time>2015-10-14T11:46:54Z</time>
      </trkpt>
      <trkpt lat="43.36341" lon="5.73095">
        <ele>387.8</ele>
        <time>2015-10-14T11:47:25Z</time>
      </trkpt>
      <trkpt lat="43.36331" lon="5.73076">
        <ele>385.7</ele>
        <time>2015-10-14T11:47:42Z</time>
      </trkpt>
      <trkpt lat="43.36317" lon="5.73061">
        <ele>380.3</ele>
        <time>2015-10-14T11:48:00Z</time>
      </trkpt>
      <trkpt lat="43.36316" lon="5.7306">
        <ele>380.6</ele>
        <time>2015-10-14T11:48:01Z</time>
      </trkpt>
      <trkpt lat="43.36286" lon="5.73039">
        <ele>367.6</ele>
        <time>2015-10-14T11:48:37Z</time>
      </trkpt>
      <trkpt lat="43.36281" lon="5.73016">
        <ele>362.7</ele>
        <time>2015-10-14T11:48:55Z</time>
      </trkpt>
      <trkpt lat="43.36274" lon="5.72995">
        <ele>364.3</ele>
        <time>2015-10-14T11:49:12Z</time>
      </trkpt>
      <trkpt lat="43.36273" lon="5.72993">
        <ele>363.7</ele>
        <time>2015-10-14T11:49:13Z</time>
      </trkpt>
      <trkpt lat="43.36266" lon="5.72948">
        <ele>368.2</ele>
        <time>2015-10-14T11:49:53Z</time>
      </trkpt>
      <trkpt lat="43.36251" lon="5.72936">
        <ele>365</ele>
        <time>2015-10-14T11:50:11Z</time>
      </trkpt>
      <trkpt lat="43.36234" lon="5.72941">
        <ele>376.7</ele>
        <time>2015-10-14T11:50:25Z</time>
      </trkpt>
      <trkpt lat="43.36233" lon="5.72942">
        <ele>377.1</ele>
        <time>2015-10-14T11:50:26Z</time>
      </trkpt>
      <trkpt lat="43.36207" lon="5.72972">
        <ele>380</ele>
        <time>2015-10-14T11:50:57Z</time>
      </trkpt>
      <trkpt lat="43.36197" lon="5.72991">
        <ele>386.1</ele>
        <time>2015-10-14T11:51:13Z</time>
      </trkpt>
      <trkpt lat="43.36182" lon="5.73004">
        <ele>386.3</ele>
        <time>2015-10-14T11:51:34Z</time>
      </trkpt>
      <trkpt lat="43.36181" lon="5.73005">
        <ele>386.5</ele>
        <time>2015-10-14T11:51:35Z</time>
      </trkpt>
      <trkpt lat="43.36155" lon="5.72991">
        <ele>383.2</ele>
        <time>2015-10-14T11:52:10Z</time>
      </trkpt>
      <trkpt lat="43.36146" lon="5.7297">
        <ele>380.2</ele>
        <time>2015-10-14T11:52:30Z</time>
      </trkpt>
      <trkpt lat="43.36132" lon="5.72955">
        <ele>385.1</ele>
        <time>2015-10-14T11:52:53Z</time>
      </trkpt>
      <trkpt lat="43.36131" lon="5.72954">
        <ele>384.8</ele>
        <time>2015-10-14T11:52:54Z</time>
      </trkpt>
      <trkpt lat="43.36097" lon="5.72961">
        <ele>387.1</ele>
        <time>2015-10-14T11:53:26Z</time>
      </trkpt>
      <trkpt lat="43.36083" lon="5.72976">
        <ele>392</ele>
        <time>2015-10-14T11:53:44Z</time>
      </trkpt>
      <trkpt lat="43.36067" lon="5.72987">
        <ele>391.6</ele>
        <time>2015-10-14T11:54:01Z</time>
      </trkpt>
      <trkpt lat="43.36066" lon="5.72988">
        <ele>392.1</ele>
        <time>2015-10-14T11:54:02Z</time>
      </trkpt>
      <trkpt lat="43.36042" lon="5.73019">
        <ele>397.7</ele>
        <time>2015-10-14T11:54:35Z</time>
      </trkpt>
      <trkpt lat="43.36032" lon="5.73039">
        <ele>395.1</ele>
        <time>2015-10-14T11:54:54Z</time>
      </trkpt>
      <trkpt lat="43.36024" lon="5.73061">
        <ele>397.2</ele>
        <time>2015-10-14T11:55:11Z</time>
      </trkpt>
      <trkpt lat="43.36023" lon="5.73062">
        <ele>397</ele>
        <time>2015-10-14T11:55:12Z</time>
      </trkpt>
      <trkpt lat="43.3602" lon="5.73108">
        <ele>398.7</ele>
        <time>2015-10-14T11:55:47Z</time>
      </trkpt>
      <trkpt lat="43.36018" lon="5.73131">
        <ele>395.7</ele>
        <time>2015-10-14T11:56:04Z</time>
      </trkpt>
      <trkpt lat="43.36018" lon="5.73155">
        <ele>393.1</ele>
        <time>2015-10-14T11:56:22Z</time>
      </trkpt>
      <trkpt lat="43.36018" lon="5.73157">
        <ele>393.7</ele>
        <time>2015-10-14T11:56:23Z</time>
      </trkpt>
      <trkpt lat="43.36015" lon="5.73204">
        <ele>395.8</ele>
        <time>2015-10-14T11:56:58Z</time>
      </trkpt>
      <trkpt lat="43.36008" lon="5.73226">
        <ele>399.6</ele>
        <time>2015-10-14T11:57:14Z</time>
      </trkpt>
      <trkpt lat="43.35997" lon="5.73244">
        <ele>402.8</ele>
        <time>2015-10-14T11:57:29Z</time>
      </trkpt>
      <trkpt lat="43.35996" lon="5.73245">
        <ele>402.8</ele>
        <time>2015-10-14T11:57:30Z</time>
      </trkpt>
      <trkpt lat="43.35989" lon="5.73199">
        <ele>392.6</ele>
        <time>2015-10-14T11:58:14Z</time>
      </trkpt>
      <trkpt lat="43.35982" lon="5.73176">
        <ele>390.5</ele>
        <time>2015-10-14T11:58:36Z</time>
      </trkpt>
      <trkpt lat="43.35982" lon="5.73174">
        <ele>391.2</ele>
        <time>2015-10-14T11:58:37Z</time>
      </trkpt>
      <trkpt lat="43.35959" lon="5.73139">
        <ele>405.7</ele>
        <time>2015-10-14T11:59:09Z</time>
      </trkpt>
      <trkpt lat="43.35943" lon="5.73129">
        <ele>407</ele>
        <time>2015-10-14T11:59:28Z</time>
      </trkpt>
      <trkpt lat="43.35926" lon="5.73125">
        <ele>406.7</ele>
        <time>2015-10-14T11:59:47Z</time>
      </trkpt>
      <trkpt lat="43.35925" lon="5.73125">
        <ele>406.3</ele>
        <time>2015-10-14T11:59:48Z</time>
      </trkpt>
      <trkpt lat="43.35891" lon="5.73126">
        <ele>430</ele>
        <time>2015-10-14T12:01:00Z</time>
      </trkpt>
      <trkpt lat="43.35891" lon="5.73127">
        <ele>428.3</ele>
        <time>2015-10-14T12:01:01Z</time>
      </trkpt>
      <trkpt lat="43.35873" lon="5.73121">
        <ele>407.6</ele>
        <time>2015-10-14T12:02:06Z</time>
      </trkpt>
      <trkpt lat="43.3584" lon="5.73108">
        <ele>408.3</ele>
        <time>2015-10-14T12:02:44Z</time>
      </trkpt>
      <trkpt lat="43.35826" lon="5.73094">
        <ele>406</ele>
        <time>2015-10-14T12:03:01Z</time>
      </trkpt>
      <trkpt lat="43.35812" lon="5.73083">
        <ele>410.7</ele>
        <time>2015-10-14T12:03:18Z</time>
      </trkpt>
      <trkpt lat="43.3581" lon="5.73082">
        <ele>410.8</ele>
        <time>2015-10-14T12:03:19Z</time>
      </trkpt>
      <trkpt lat="43.35778" lon="5.73071">
        <ele>412.5</ele>
        <time>2015-10-14T12:03:55Z</time>
      </trkpt>
      <trkpt lat="43.35764" lon="5.73058">
        <ele>413.1</ele>
        <time>2015-10-14T12:04:14Z</time>
      </trkpt>
      <trkpt lat="43.35752" lon="5.73042">
        <ele>412.2</ele>
        <time>2015-10-14T12:04:32Z</time>
      </trkpt>
      <trkpt lat="43.35751" lon="5.73041">
        <ele>412.3</ele>
        <time>2015-10-14T12:04:33Z</time>
      </trkpt>
      <trkpt lat="43.35731" lon="5.73005">
        <ele>410</ele>
        <time>2015-10-14T12:05:12Z</time>
      </trkpt>
      <trkpt lat="43.35736" lon="5.72983">
        <ele>415.8</ele>
        <time>2015-10-14T12:05:28Z</time>
      </trkpt>
      <trkpt lat="43.35744" lon="5.72961">
        <ele>422.2</ele>
        <time>2015-10-14T12:05:45Z</time>
      </trkpt>
      <trkpt lat="43.35745" lon="5.7296">
        <ele>422.7</ele>
        <time>2015-10-14T12:05:46Z</time>
      </trkpt>
      <trkpt lat="43.35743" lon="5.72914">
        <ele>412.7</ele>
        <time>2015-10-14T12:06:27Z</time>
      </trkpt>
      <trkpt lat="43.3574" lon="5.72891">
        <ele>416.8</ele>
        <time>2015-10-14T12:06:40Z</time>
      </trkpt>
      <trkpt lat="43.35737" lon="5.72868">
        <ele>415</ele>
        <time>2015-10-14T12:07:00Z</time>
      </trkpt>
      <trkpt lat="43.35737" lon="5.72866">
        <ele>414.6</ele>
        <time>2015-10-14T12:07:01Z</time>
      </trkpt>
      <trkpt lat="43.35723" lon="5.72824">
        <ele>417.7</ele>
        <time>2015-10-14T12:07:32Z</time>
      </trkpt>
      <trkpt lat="43.3571" lon="5.72806">
        <ele>419</ele>
        <time>2015-10-14T12:07:51Z</time>
      </trkpt>
      <trkpt lat="43.35698" lon="5.72789">
        <ele>422.1</ele>
        <time>2015-10-14T12:08:08Z</time>
      </trkpt>
      <trkpt lat="43.35698" lon="5.72789">
        <ele>422.2</ele>
        <time>2015-10-14T12:08:09Z</time>
      </trkpt>
      <trkpt lat="43.35666" lon="5.7277">
        <ele>419.1</ele>
        <time>2015-10-14T12:08:41Z</time>
      </trkpt>
      <trkpt lat="43.3565" lon="5.72762">
        <ele>419.2</ele>
        <time>2015-10-14T12:08:56Z</time>
      </trkpt>
      <trkpt lat="43.35634" lon="5.72752">
        <ele>422.8</ele>
        <time>2015-10-14T12:09:12Z</time>
      </trkpt>
      <trkpt lat="43.35633" lon="5.72751">
        <ele>422.7</ele>
        <time>2015-10-14T12:09:13Z</time>
      </trkpt>
      <trkpt lat="43.35603" lon="5.72731">
        <ele>414.8</ele>
        <time>2015-10-14T12:09:50Z</time>
      </trkpt>
      <trkpt lat="43.35587" lon="5.72721">
        <ele>417</ele>
        <time>2015-10-14T12:10:08Z</time>
      </trkpt>
      <trkpt lat="43.35571" lon="5.7271">
        <ele>421.3</ele>
        <time>2015-10-14T12:10:27Z</time>
      </trkpt>
      <trkpt lat="43.3557" lon="5.72708">
        <ele>421.2</ele>
        <time>2015-10-14T12:10:28Z</time>
      </trkpt>
      <trkpt lat="43.35539" lon="5.72691">
        <ele>419.6</ele>
        <time>2015-10-14T12:10:58Z</time>
      </trkpt>
      <trkpt lat="43.35523" lon="5.72682">
        <ele>426.2</ele>
        <time>2015-10-14T12:11:15Z</time>
      </trkpt>
      <trkpt lat="43.35505" lon="5.72675">
        <ele>432.5</ele>
        <time>2015-10-14T12:11:34Z</time>
      </trkpt>
      <trkpt lat="43.35505" lon="5.72674">
        <ele>431.7</ele>
        <time>2015-10-14T12:11:35Z</time>
      </trkpt>
      <trkpt lat="43.35476" lon="5.72649">
        <ele>419</ele>
        <time>2015-10-14T12:12:13Z</time>
      </trkpt>
      <trkpt lat="43.3546" lon="5.7264">
        <ele>417.6</ele>
        <time>2015-10-14T12:12:32Z</time>
      </trkpt>
      <trkpt lat="43.35445" lon="5.72629">
        <ele>412.5</ele>
        <time>2015-10-14T12:12:50Z</time>
      </trkpt>
      <trkpt lat="43.35444" lon="5.72629">
        <ele>412.3</ele>
        <time>2015-10-14T12:12:51Z</time>
      </trkpt>
      <trkpt lat="43.35426" lon="5.72588">
        <ele>428.7</ele>
        <time>2015-10-14T12:14:15Z</time>
      </trkpt>
      <trkpt lat="43.35425" lon="5.72588">
        <ele>428.3</ele>
        <time>2015-10-14T12:14:16Z</time>
      </trkpt>
      <trkpt lat="43.35409" lon="5.726">
        <ele>433.2</ele>
        <time>2015-10-14T12:17:42Z</time>
      </trkpt>
      <trkpt lat="43.35376" lon="5.72595">
        <ele>431.7</ele>
        <time>2015-10-14T12:18:17Z</time>
      </trkpt>
      <trkpt lat="43.35364" lon="5.72577">
        <ele>426.7</ele>
        <time>2015-10-14T12:18:39Z</time>
      </trkpt>
      <trkpt lat="43.35352" lon="5.72559">
        <ele>424.3</ele>
        <time>2015-10-14T12:18:57Z</time>
      </trkpt>
      <trkpt lat="43.35351" lon="5.72558">
        <ele>424.5</ele>
        <time>2015-10-14T12:18:58Z</time>
      </trkpt>
      <trkpt lat="43.3533" lon="5.72521">
        <ele>427</ele>
        <time>2015-10-14T12:19:31Z</time>
      </trkpt>
      <trkpt lat="43.35319" lon="5.72501">
        <ele>428.5</ele>
        <time>2015-10-14T12:19:48Z</time>
      </trkpt>
      <trkpt lat="43.35313" lon="5.72478">
        <ele>422.2</ele>
        <time>2015-10-14T12:20:09Z</time>
      </trkpt>
      <trkpt lat="43.35313" lon="5.72477">
        <ele>422.2</ele>
        <time>2015-10-14T12:20:10Z</time>
      </trkpt>
      <trkpt lat="43.3531" lon="5.72431">
        <ele>424.5</ele>
        <time>2015-10-14T12:20:37Z</time>
      </trkpt>
      <trkpt lat="43.3531" lon="5.72407">
        <ele>423.3</ele>
        <time>2015-10-14T12:20:54Z</time>
      </trkpt>
      <trkpt lat="43.35306" lon="5.72383">
        <ele>412.7</ele>
        <time>2015-10-14T12:21:16Z</time>
      </trkpt>
      <trkpt lat="43.35306" lon="5.72382">
        <ele>412.2</ele>
        <time>2015-10-14T12:21:17Z</time>
      </trkpt>
      <trkpt lat="43.35308" lon="5.72336">
        <ele>393</ele>
        <time>2015-10-14T12:21:57Z</time>
      </trkpt>
      <trkpt lat="43.35312" lon="5.72313">
        <ele>388</ele>
        <time>2015-10-14T12:22:15Z</time>
      </trkpt>
      <trkpt lat="43.35308" lon="5.72289">
        <ele>380.3</ele>
        <time>2015-10-14T12:22:39Z</time>
      </trkpt>
      <trkpt lat="43.35308" lon="5.72288">
        <ele>380.3</ele>
        <time>2015-10-14T12:22:40Z</time>
      </trkpt>
      <trkpt lat="43.35288" lon="5.7225">
        <ele>371.5</ele>
        <time>2015-10-14T12:23:19Z</time>
      </trkpt>
      <trkpt lat="43.35275" lon="5.72237">
        <ele>372.2</ele>
        <time>2015-10-14T12:23:37Z</time>
      </trkpt>
      <trkpt lat="43.35263" lon="5.72219">
        <ele>375.3</ele>
        <time>2015-10-14T12:23:51Z</time>
      </trkpt>
      <trkpt lat="43.35263" lon="5.72218">
        <ele>375</ele>
        <time>2015-10-14T12:23:52Z</time>
      </trkpt>
      <trkpt lat="43.35232" lon="5.72198">
        <ele>372.1</ele>
        <time>2015-10-14T12:24:24Z</time>
      </trkpt>
      <trkpt lat="43.35217" lon="5.72186">
        <ele>373.6</ele>
        <time>2015-10-14T12:24:39Z</time>
      </trkpt>
      <trkpt lat="43.35202" lon="5.72173">
        <ele>374.5</ele>
        <time>2015-10-14T12:24:54Z</time>
      </trkpt>
      <trkpt lat="43.35201" lon="5.72173">
        <ele>374.2</ele>
        <time>2015-10-14T12:24:55Z</time>
      </trkpt>
      <trkpt lat="43.35175" lon="5.72144">
        <ele>379.6</ele>
        <time>2015-10-14T12:25:21Z</time>
      </trkpt>
      <trkpt lat="43.35162" lon="5.72127">
        <ele>385.2</ele>
        <time>2015-10-14T12:25:36Z</time>
      </trkpt>
      <trkpt lat="43.35151" lon="5.72109">
        <ele>398.5</ele>
        <time>2015-10-14T12:25:49Z</time>
      </trkpt>
      <trkpt lat="43.35141" lon="5.72088">
        <ele>421.3</ele>
        <time>2015-10-14T12:26:00Z</time>
      </trkpt>
      <trkpt lat="43.35141" lon="5.72087">
        <ele>422.7</ele>
        <time>2015-10-14T12:26:01Z</time>
      </trkpt>
      <trkpt lat="43.35113" lon="5.7206">
        <ele>452.7</ele>
        <time>2015-10-14T12:26:27Z</time>
      </trkpt>
      <trkpt lat="43.35096" lon="5.72064">
        <ele>453.7</ele>
        <time>2015-10-14T12:26:47Z</time>
      </trkpt>
      <trkpt lat="43.35078" lon="5.7206">
        <ele>454.2</ele>
        <time>2015-10-14T12:27:09Z</time>
      </trkpt>
      <trkpt lat="43.35077" lon="5.7206">
        <ele>454</ele>
        <time>2015-10-14T12:27:10Z</time>
      </trkpt>
      <trkpt lat="43.35047" lon="5.72038">
        <ele>460.5</ele>
        <time>2015-10-14T12:27:52Z</time>
      </trkpt>
      <trkpt lat="43.3503" lon="5.72031">
        <ele>458.3</ele>
        <time>2015-10-14T12:28:14Z</time>
      </trkpt>
      <trkpt lat="43.35028" lon="5.7203">
        <ele>459.7</ele>
        <time>2015-10-14T12:28:15Z</time>
      </trkpt>
      <trkpt lat="43.34995" lon="5.72033">
        <ele>463.8</ele>
        <time>2015-10-14T12:28:55Z</time>
      </trkpt>
      <trkpt lat="43.34978" lon="5.72037">
        <ele>471</ele>
        <time>2015-10-14T12:29:15Z</time>
      </trkpt>
      <trkpt lat="43.34977" lon="5.72037">
        <ele>471.3</ele>
        <time>2015-10-14T12:29:16Z</time>
      </trkpt>
      <trkpt lat="43.34945" lon="5.72043">
        <ele>473</ele>
        <time>2015-10-14T12:29:55Z</time>
      </trkpt>
      <trkpt lat="43.34928" lon="5.72053">
        <ele>474.7</ele>
        <time>2015-10-14T12:30:22Z</time>
      </trkpt>
      <trkpt lat="43.34928" lon="5.72053">
        <ele>475.6</ele>
        <time>2015-10-14T12:30:23Z</time>
      </trkpt>
      <trkpt lat="43.34916" lon="5.72008">
        <ele>468</ele>
        <time>2015-10-14T12:31:44Z</time>
      </trkpt>
      <trkpt lat="43.34916" lon="5.72007">
        <ele>467.6</ele>
        <time>2015-10-14T12:31:45Z</time>
      </trkpt>
      <trkpt lat="43.34897" lon="5.71967">
        <ele>466.3</ele>
        <time>2015-10-14T12:32:33Z</time>
      </trkpt>
      <trkpt lat="43.34896" lon="5.71943">
        <ele>474.7</ele>
        <time>2015-10-14T12:32:54Z</time>
      </trkpt>
      <trkpt lat="43.34896" lon="5.71941">
        <ele>475.5</ele>
        <time>2015-10-14T12:32:55Z</time>
      </trkpt>
      <trkpt lat="43.34907" lon="5.71898">
        <ele>486.6</ele>
        <time>2015-10-14T12:33:31Z</time>
      </trkpt>
      <trkpt lat="43.34914" lon="5.71876">
        <ele>500.7</ele>
        <time>2015-10-14T12:33:46Z</time>
      </trkpt>
      <trkpt lat="43.34916" lon="5.71851">
        <ele>503</ele>
        <time>2015-10-14T12:34:08Z</time>
      </trkpt>
      <trkpt lat="43.34916" lon="5.71851">
        <ele>502.2</ele>
        <time>2015-10-14T12:34:09Z</time>
      </trkpt>
      <trkpt lat="43.34921" lon="5.71805">
        <ele>514</ele>
        <time>2015-10-14T12:34:50Z</time>
      </trkpt>
      <trkpt lat="43.34923" lon="5.71781">
        <ele>518.2</ele>
        <time>2015-10-14T12:35:14Z</time>
      </trkpt>
      <trkpt lat="43.34922" lon="5.7178">
        <ele>518.7</ele>
        <time>2015-10-14T12:35:15Z</time>
      </trkpt>
      <trkpt lat="43.34923" lon="5.71756">
        <ele>519.9</ele>
        <time>2015-10-14T12:39:44Z</time>
      </trkpt>
      <trkpt lat="43.34923" lon="5.71708">
        <ele>517.7</ele>
        <time>2015-10-14T12:40:19Z</time>
      </trkpt>
      <trkpt lat="43.3492" lon="5.71685">
        <ele>516</ele>
        <time>2015-10-14T12:40:34Z</time>
      </trkpt>
      <trkpt lat="43.34916" lon="5.71662">
        <ele>509.1</ele>
        <time>2015-10-14T12:40:53Z</time>
      </trkpt>
      <trkpt lat="43.34915" lon="5.71661">
        <ele>508.7</ele>
        <time>2015-10-14T12:40:54Z</time>
      </trkpt>
      <trkpt lat="43.34899" lon="5.7162">
        <ele>499.1</ele>
        <time>2015-10-14T12:41:26Z</time>
      </trkpt>
      <trkpt lat="43.34887" lon="5.71602">
        <ele>503</ele>
        <time>2015-10-14T12:41:38Z</time>
      </trkpt>
      <trkpt lat="43.34873" lon="5.71587">
        <ele>510.2</ele>
        <time>2015-10-14T12:41:50Z</time>
      </trkpt>
      <trkpt lat="43.34856" lon="5.71584">
        <ele>509.6</ele>
        <time>2015-10-14T12:42:05Z</time>
      </trkpt>
      <trkpt lat="43.34855" lon="5.71584">
        <ele>509.6</ele>
        <time>2015-10-14T12:42:06Z</time>
      </trkpt>
      <trkpt lat="43.34822" lon="5.71585">
        <ele>510.2</ele>
        <time>2015-10-14T12:42:33Z</time>
      </trkpt>
      <trkpt lat="43.34804" lon="5.71588">
        <ele>509.2</ele>
        <time>2015-10-14T12:42:48Z</time>
      </trkpt>
      <trkpt lat="43.34788" lon="5.71594">
        <ele>507.6</ele>
        <time>2015-10-14T12:43:04Z</time>
      </trkpt>
      <trkpt lat="43.3477" lon="5.71597">
        <ele>508.2</ele>
        <time>2015-10-14T12:43:18Z</time>
      </trkpt>
      <trkpt lat="43.34769" lon="5.71598">
        <ele>508.2</ele>
        <time>2015-10-14T12:43:19Z</time>
      </trkpt>
      <trkpt lat="43.34736" lon="5.71605">
        <ele>505.7</ele>
        <time>2015-10-14T12:43:51Z</time>
      </trkpt>
      <trkpt lat="43.34718" lon="5.71605">
        <ele>510.2</ele>
        <time>2015-10-14T12:44:07Z</time>
      </trkpt>
      <trkpt lat="43.34701" lon="5.71607">
        <ele>509.7</ele>
        <time>2015-10-14T12:44:23Z</time>
      </trkpt>
      <trkpt lat="43.347" lon="5.71607">
        <ele>509.8</ele>
        <time>2015-10-14T12:44:24Z</time>
      </trkpt>
      <trkpt lat="43.34689" lon="5.71584">
        <ele>518</ele>
        <time>2015-10-14T12:45:59Z</time>
      </trkpt>
      <trkpt lat="43.34689" lon="5.71583">
        <ele>518</ele>
        <time>2015-10-14T12:46:00Z</time>
      </trkpt>
      <trkpt lat="43.34718" lon="5.71557">
        <ele>520.2</ele>
        <time>2015-10-14T12:46:36Z</time>
      </trkpt>
      <trkpt lat="43.34732" lon="5.71542">
        <ele>518.5</ele>
        <time>2015-10-14T12:46:54Z</time>
      </trkpt>
      <trkpt lat="43.34744" lon="5.71524">
        <ele>519.2</ele>
        <time>2015-10-14T12:47:13Z</time>
      </trkpt>
      <trkpt lat="43.34744" lon="5.71523">
        <ele>519.2</ele>
        <time>2015-10-14T12:47:14Z</time>
      </trkpt>
      <trkpt lat="43.34765" lon="5.71487">
        <ele>517.4</ele>
        <time>2015-10-14T12:47:46Z</time>
      </trkpt>
      <trkpt lat="43.34771" lon="5.71465">
        <ele>518.2</ele>
        <time>2015-10-14T12:48:00Z</time>
      </trkpt>
      <trkpt lat="43.34779" lon="5.71444">
        <ele>516.9</ele>
        <time>2015-10-14T12:48:15Z</time>
      </trkpt>
      <trkpt lat="43.3478" lon="5.71443">
        <ele>517</ele>
        <time>2015-10-14T12:48:16Z</time>
      </trkpt>
      <trkpt lat="43.34799" lon="5.71405">
        <ele>513.7</ele>
        <time>2015-10-14T12:48:46Z</time>
      </trkpt>
      <trkpt lat="43.348" lon="5.71382">
        <ele>511.3</ele>
        <time>2015-10-14T12:49:02Z</time>
      </trkpt>
      <trkpt lat="43.34793" lon="5.71359">
        <ele>510.6</ele>
        <time>2015-10-14T12:49:17Z</time>
      </trkpt>
      <trkpt lat="43.34793" lon="5.71358">
        <ele>510.3</ele>
        <time>2015-10-14T12:49:18Z</time>
      </trkpt>
      <trkpt lat="43.3477" lon="5.71324">
        <ele>505.8</ele>
        <time>2015-10-14T12:49:53Z</time>
      </trkpt>
      <trkpt lat="43.34758" lon="5.71307">
        <ele>507.2</ele>
        <time>2015-10-14T12:50:09Z</time>
      </trkpt>
      <trkpt lat="43.34745" lon="5.71291">
        <ele>510.7</ele>
        <time>2015-10-14T12:50:26Z</time>
      </trkpt>
      <trkpt lat="43.34744" lon="5.7129">
        <ele>511.3</ele>
        <time>2015-10-14T12:50:27Z</time>
      </trkpt>
      <trkpt lat="43.34717" lon="5.71262">
        <ele>518.2</ele>
        <time>2015-10-14T12:51:02Z</time>
      </trkpt>
      <trkpt lat="43.34706" lon="5.71243">
        <ele>517.2</ele>
        <time>2015-10-14T12:51:21Z</time>
      </trkpt>
      <trkpt lat="43.34703" lon="5.7122">
        <ele>519.7</ele>
        <time>2015-10-14T12:51:37Z</time>
      </trkpt>
      <trkpt lat="43.34703" lon="5.71218">
        <ele>520.5</ele>
        <time>2015-10-14T12:51:38Z</time>
      </trkpt>
      <trkpt lat="43.34732" lon="5.71202">
        <ele>525.9</ele>
        <time>2015-10-14T12:52:19Z</time>
      </trkpt>
      <trkpt lat="43.34749" lon="5.71197">
        <ele>526.4</ele>
        <time>2015-10-14T12:52:34Z</time>
      </trkpt>
      <trkpt lat="43.34765" lon="5.71188">
        <ele>527</ele>
        <time>2015-10-14T12:52:52Z</time>
      </trkpt>
      <trkpt lat="43.34766" lon="5.71188">
        <ele>527.2</ele>
        <time>2015-10-14T12:52:53Z</time>
      </trkpt>
      <trkpt lat="43.34799" lon="5.71193">
        <ele>534.2</ele>
        <time>2015-10-14T12:53:21Z</time>
      </trkpt>
      <trkpt lat="43.34814" lon="5.71181">
        <ele>535.5</ele>
        <time>2015-10-14T12:53:45Z</time>
      </trkpt>
      <trkpt lat="43.34826" lon="5.71163">
        <ele>536.7</ele>
        <time>2015-10-14T12:54:08Z</time>
      </trkpt>
      <trkpt lat="43.34826" lon="5.71162">
        <ele>536.7</ele>
        <time>2015-10-14T12:54:09Z</time>
      </trkpt>
      <trkpt lat="43.34824" lon="5.71115">
        <ele>527.2</ele>
        <time>2015-10-14T12:55:11Z</time>
      </trkpt>
      <trkpt lat="43.34824" lon="5.71114">
        <ele>526.5</ele>
        <time>2015-10-14T12:55:12Z</time>
      </trkpt>
      <trkpt lat="43.34811" lon="5.71073">
        <ele>539.9</ele>
        <time>2015-10-14T12:55:43Z</time>
      </trkpt>
      <trkpt lat="43.34797" lon="5.71058">
        <ele>543.5</ele>
        <time>2015-10-14T12:55:59Z</time>
      </trkpt>
      <trkpt lat="43.34784" lon="5.71043">
        <ele>536.5</ele>
        <time>2015-10-14T12:56:19Z</time>
      </trkpt>
      <trkpt lat="43.34783" lon="5.71042">
        <ele>536.7</ele>
        <time>2015-10-14T12:56:20Z</time>
      </trkpt>
      <trkpt lat="43.34763" lon="5.71006">
        <ele>542.7</ele>
        <time>2015-10-14T12:56:53Z</time>
      </trkpt>
      <trkpt lat="43.34747" lon="5.70993">
        <ele>539.7</ele>
        <time>2015-10-14T12:57:16Z</time>
      </trkpt>
      <trkpt lat="43.34737" lon="5.70974">
        <ele>549</ele>
        <time>2015-10-14T12:57:30Z</time>
      </trkpt>
      <trkpt lat="43.34736" lon="5.70973">
        <ele>548.5</ele>
        <time>2015-10-14T12:57:31Z</time>
      </trkpt>
      <trkpt lat="43.34717" lon="5.70935">
        <ele>557.9</ele>
        <time>2015-10-14T12:58:01Z</time>
      </trkpt>
      <trkpt lat="43.34709" lon="5.70913">
        <ele>561.7</ele>
        <time>2015-10-14T12:58:20Z</time>
      </trkpt>
      <trkpt lat="43.34708" lon="5.70889">
        <ele>551.5</ele>
        <time>2015-10-14T12:58:53Z</time>
      </trkpt>
      <trkpt lat="43.34708" lon="5.70887">
        <ele>551</ele>
        <time>2015-10-14T12:58:54Z</time>
      </trkpt>
      <trkpt lat="43.34717" lon="5.70842">
        <ele>551.7</ele>
        <time>2015-10-14T12:59:31Z</time>
      </trkpt>
      <trkpt lat="43.34712" lon="5.70819">
        <ele>573.4</ele>
        <time>2015-10-14T12:59:56Z</time>
      </trkpt>
      <trkpt lat="43.34712" lon="5.70818">
        <ele>574.5</ele>
        <time>2015-10-14T12:59:57Z</time>
      </trkpt>
      <trkpt lat="43.34715" lon="5.70793">
        <ele>571.9</ele>
        <time>2015-10-14T13:01:03Z</time>
      </trkpt>
      <trkpt lat="43.34709" lon="5.7079">
        <ele>561.2</ele>
        <time>2015-10-14T13:02:18Z</time>
      </trkpt>
      <trkpt lat="43.34708" lon="5.7079">
        <ele>560.2</ele>
        <time>2015-10-14T13:02:19Z</time>
      </trkpt>
      <trkpt lat="43.34703" lon="5.70838">
        <ele>528.2</ele>
        <time>2015-10-14T13:03:07Z</time>
      </trkpt>
      <trkpt lat="43.347" lon="5.70861">
        <ele>529.7</ele>
        <time>2015-10-14T13:03:24Z</time>
      </trkpt>
      <trkpt lat="43.34699" lon="5.70865">
        <ele>535.5</ele>
        <time>2015-10-14T13:03:25Z</time>
      </trkpt>
      <trkpt lat="43.34677" lon="5.70831">
        <ele>569.4</ele>
        <time>2015-10-14T13:04:33Z</time>
      </trkpt>
      <trkpt lat="43.34677" lon="5.70831">
        <ele>568.5</ele>
        <time>2015-10-14T13:04:34Z</time>
      </trkpt>
      <trkpt lat="43.34661" lon="5.7079">
        <ele>552.5</ele>
        <time>2015-10-14T13:05:21Z</time>
      </trkpt>
      <trkpt lat="43.34649" lon="5.70772">
        <ele>554.5</ele>
        <time>2015-10-14T13:05:42Z</time>
      </trkpt>
      <trkpt lat="43.34649" lon="5.70772">
        <ele>554</ele>
        <time>2015-10-14T13:05:43Z</time>
      </trkpt>
      <trkpt lat="43.34618" lon="5.70749">
        <ele>573</ele>
        <time>2015-10-14T13:06:30Z</time>
      </trkpt>
      <trkpt lat="43.34607" lon="5.7073">
        <ele>568.5</ele>
        <time>2015-10-14T13:06:49Z</time>
      </trkpt>
      <trkpt lat="43.34606" lon="5.7073">
        <ele>568.7</ele>
        <time>2015-10-14T13:06:50Z</time>
      </trkpt>
      <trkpt lat="43.34591" lon="5.70688">
        <ele>562</ele>
        <time>2015-10-14T13:07:30Z</time>
      </trkpt>
      <trkpt lat="43.34591" lon="5.70663">
        <ele>559.7</ele>
        <time>2015-10-14T13:07:56Z</time>
      </trkpt>
      <trkpt lat="43.34591" lon="5.70662">
        <ele>559.7</ele>
        <time>2015-10-14T13:07:57Z</time>
      </trkpt>
      <trkpt lat="43.3458" lon="5.7062">
        <ele>555.9</ele>
        <time>2015-10-14T13:08:29Z</time>
      </trkpt>
      <trkpt lat="43.34569" lon="5.706">
        <ele>559.2</ele>
        <time>2015-10-14T13:08:44Z</time>
      </trkpt>
      <trkpt lat="43.34556" lon="5.70584">
        <ele>561.2</ele>
        <time>2015-10-14T13:09:00Z</time>
      </trkpt>
      <trkpt lat="43.34555" lon="5.70583">
        <ele>561.2</ele>
        <time>2015-10-14T13:09:01Z</time>
      </trkpt>
      <trkpt lat="43.34528" lon="5.70558">
        <ele>564.7</ele>
        <time>2015-10-14T13:09:42Z</time>
      </trkpt>
      <trkpt lat="43.34511" lon="5.7055">
        <ele>564.5</ele>
        <time>2015-10-14T13:09:59Z</time>
      </trkpt>
      <trkpt lat="43.34496" lon="5.70538">
        <ele>564.9</ele>
        <time>2015-10-14T13:10:18Z</time>
      </trkpt>
      <trkpt lat="43.34496" lon="5.70537">
        <ele>565</ele>
        <time>2015-10-14T13:10:19Z</time>
      </trkpt>
      <trkpt lat="43.34469" lon="5.70509">
        <ele>567.9</ele>
        <time>2015-10-14T13:10:52Z</time>
      </trkpt>
      <trkpt lat="43.34452" lon="5.70502">
        <ele>572.7</ele>
        <time>2015-10-14T13:11:15Z</time>
      </trkpt>
      <trkpt lat="43.34437" lon="5.70515">
        <ele>577</ele>
        <time>2015-10-14T13:11:35Z</time>
      </trkpt>
      <trkpt lat="43.34436" lon="5.70515">
        <ele>577</ele>
        <time>2015-10-14T13:11:36Z</time>
      </trkpt>
      <trkpt lat="43.34402" lon="5.70525">
        <ele>595.7</ele>
        <time>2015-10-14T13:13:59Z</time>
      </trkpt>
      <trkpt lat="43.34402" lon="5.70525">
        <ele>596.2</ele>
        <time>2015-10-14T13:14:00Z</time>
      </trkpt>
      <trkpt lat="43.34393" lon="5.70547">
        <ele>592.5</ele>
        <time>2015-10-14T13:16:12Z</time>
      </trkpt>
      <trkpt lat="43.34392" lon="5.70542">
        <ele>595.2</ele>
        <time>2015-10-14T13:19:32Z</time>
      </trkpt>
      <trkpt lat="43.34393" lon="5.70542">
        <ele>595</ele>
        <time>2015-10-14T13:19:33Z</time>
      </trkpt>
      <trkpt lat="43.34424" lon="5.70524">
        <ele>586.2</ele>
        <time>2015-10-14T13:20:24Z</time>
      </trkpt>
      <trkpt lat="43.34436" lon="5.70507">
        <ele>579.5</ele>
        <time>2015-10-14T13:20:45Z</time>
      </trkpt>
      <trkpt lat="43.34438" lon="5.70507">
        <ele>579.7</ele>
        <time>2015-10-14T13:20:46Z</time>
      </trkpt>
      <trkpt lat="43.34466" lon="5.70485">
        <ele>579.7</ele>
        <time>2015-10-14T13:21:20Z</time>
      </trkpt>
      <trkpt lat="43.34482" lon="5.70476">
        <ele>584.2</ele>
        <time>2015-10-14T13:21:37Z</time>
      </trkpt>
      <trkpt lat="43.34499" lon="5.70468">
        <ele>587.9</ele>
        <time>2015-10-14T13:21:54Z</time>
      </trkpt>
      <trkpt lat="43.34499" lon="5.70467">
        <ele>588</ele>
        <time>2015-10-14T13:21:55Z</time>
      </trkpt>
      <trkpt lat="43.34495" lon="5.70441">
        <ele>581.7</ele>
        <time>2015-10-14T13:22:48Z</time>
      </trkpt>
      <trkpt lat="43.34478" lon="5.70435">
        <ele>578.2</ele>
        <time>2015-10-14T13:23:12Z</time>
      </trkpt>
      <trkpt lat="43.34477" lon="5.70434">
        <ele>578</ele>
        <time>2015-10-14T13:23:13Z</time>
      </trkpt>
      <trkpt lat="43.34453" lon="5.70401">
        <ele>590.7</ele>
        <time>2015-10-14T13:24:18Z</time>
      </trkpt>
      <trkpt lat="43.34452" lon="5.70401">
        <ele>591.2</ele>
        <time>2015-10-14T13:24:19Z</time>
      </trkpt>
      <trkpt lat="43.34438" lon="5.70358">
        <ele>599.5</ele>
        <time>2015-10-14T13:25:35Z</time>
      </trkpt>
      <trkpt lat="43.34437" lon="5.70357">
        <ele>599.4</ele>
        <time>2015-10-14T13:25:36Z</time>
      </trkpt>
      <trkpt lat="43.34426" lon="5.70315">
        <ele>606.7</ele>
        <time>2015-10-14T13:26:59Z</time>
      </trkpt>
      <trkpt lat="43.34425" lon="5.70313">
        <ele>608.5</ele>
        <time>2015-10-14T13:27:00Z</time>
      </trkpt>
      <trkpt lat="43.34419" lon="5.70267">
        <ele>610.2</ele>
        <time>2015-10-14T13:28:01Z</time>
      </trkpt>
      <trkpt lat="43.34418" lon="5.70266">
        <ele>610</ele>
        <time>2015-10-14T13:28:02Z</time>
      </trkpt>
      <trkpt lat="43.34413" lon="5.70218">
        <ele>615.5</ele>
        <time>2015-10-14T13:29:14Z</time>
      </trkpt>
      <trkpt lat="43.34413" lon="5.70218">
        <ele>615.5</ele>
        <time>2015-10-14T13:29:15Z</time>
      </trkpt>
      <trkpt lat="43.34404" lon="5.70196">
        <ele>634.2</ele>
        <time>2015-10-14T13:30:37Z</time>
      </trkpt>
      <trkpt lat="43.34394" lon="5.70176">
        <ele>629</ele>
        <time>2015-10-14T13:32:20Z</time>
      </trkpt>
      <trkpt lat="43.34368" lon="5.70144">
        <ele>619.9</ele>
        <time>2015-10-14T13:33:12Z</time>
      </trkpt>
      <trkpt lat="43.34353" lon="5.70132">
        <ele>629.5</ele>
        <time>2015-10-14T13:33:38Z</time>
      </trkpt>
      <trkpt lat="43.34353" lon="5.70132">
        <ele>629.5</ele>
        <time>2015-10-14T13:33:39Z</time>
      </trkpt>
      <trkpt lat="43.34328" lon="5.70097">
        <ele>636</ele>
        <time>2015-10-14T13:34:33Z</time>
      </trkpt>
      <trkpt lat="43.34316" lon="5.70079">
        <ele>636.4</ele>
        <time>2015-10-14T13:35:09Z</time>
      </trkpt>
      <trkpt lat="43.34316" lon="5.70079">
        <ele>636.4</ele>
        <time>2015-10-14T13:35:10Z</time>
      </trkpt>
      <trkpt lat="43.34287" lon="5.70053">
        <ele>646.7</ele>
        <time>2015-10-14T13:36:04Z</time>
      </trkpt>
      <trkpt lat="43.34269" lon="5.7005">
        <ele>648.5</ele>
        <time>2015-10-14T13:36:35Z</time>
      </trkpt>
      <trkpt lat="43.34269" lon="5.7005">
        <ele>648.5</ele>
        <time>2015-10-14T13:36:36Z</time>
      </trkpt>
      <trkpt lat="43.34244" lon="5.70019">
        <ele>649.7</ele>
        <time>2015-10-14T13:37:18Z</time>
      </trkpt>
      <trkpt lat="43.34231" lon="5.70003">
        <ele>649</ele>
        <time>2015-10-14T13:37:42Z</time>
      </trkpt>
      <trkpt lat="43.3423" lon="5.70002">
        <ele>649</ele>
        <time>2015-10-14T13:37:43Z</time>
      </trkpt>
      <trkpt lat="43.34207" lon="5.69969">
        <ele>656.9</ele>
        <time>2015-10-14T13:38:27Z</time>
      </trkpt>
      <trkpt lat="43.34197" lon="5.69949">
        <ele>658.7</ele>
        <time>2015-10-14T13:38:47Z</time>
      </trkpt>
      <trkpt lat="43.34196" lon="5.69948">
        <ele>658.5</ele>
        <time>2015-10-14T13:38:48Z</time>
      </trkpt>
      <trkpt lat="43.3418" lon="5.69906">
        <ele>654.5</ele>
        <time>2015-10-14T13:39:33Z</time>
      </trkpt>
      <trkpt lat="43.3417" lon="5.69886">
        <ele>658.5</ele>
        <time>2015-10-14T13:39:53Z</time>
      </trkpt>
      <trkpt lat="43.34169" lon="5.69885">
        <ele>658.4</ele>
        <time>2015-10-14T13:39:54Z</time>
      </trkpt>
      <trkpt lat="43.3415" lon="5.69851">
        <ele>660</ele>
        <time>2015-10-14T13:40:28Z</time>
      </trkpt>
      <trkpt lat="43.34141" lon="5.69831">
        <ele>657.9</ele>
        <time>2015-10-14T13:40:45Z</time>
      </trkpt>
      <trkpt lat="43.34127" lon="5.69817">
        <ele>658</ele>
        <time>2015-10-14T13:41:06Z</time>
      </trkpt>
      <trkpt lat="43.34126" lon="5.69816">
        <ele>657.9</ele>
        <time>2015-10-14T13:41:07Z</time>
      </trkpt>
      <trkpt lat="43.34104" lon="5.69781">
        <ele>659.7</ele>
        <time>2015-10-14T13:41:38Z</time>
      </trkpt>
      <trkpt lat="43.34091" lon="5.69765">
        <ele>666</ele>
        <time>2015-10-14T13:41:53Z</time>
      </trkpt>
      <trkpt lat="43.34079" lon="5.69748">
        <ele>667.5</ele>
        <time>2015-10-14T13:42:09Z</time>
      </trkpt>
      <trkpt lat="43.34078" lon="5.69748">
        <ele>667.5</ele>
        <time>2015-10-14T13:42:10Z</time>
      </trkpt>
      <trkpt lat="43.34058" lon="5.69786">
        <ele>663.5</ele>
        <time>2015-10-14T13:42:51Z</time>
      </trkpt>
      <trkpt lat="43.34053" lon="5.69809">
        <ele>664.7</ele>
        <time>2015-10-14T13:43:07Z</time>
      </trkpt>
      <trkpt lat="43.34056" lon="5.69833">
        <ele>666.5</ele>
        <time>2015-10-14T13:43:24Z</time>
      </trkpt>
      <trkpt lat="43.34056" lon="5.69834">
        <ele>666.4</ele>
        <time>2015-10-14T13:43:25Z</time>
      </trkpt>
      <trkpt lat="43.34042" lon="5.69872">
        <ele>666.7</ele>
        <time>2015-10-14T13:44:01Z</time>
      </trkpt>
      <trkpt lat="43.34028" lon="5.69886">
        <ele>664.2</ele>
        <time>2015-10-14T13:44:19Z</time>
      </trkpt>
      <trkpt lat="43.34014" lon="5.69898">
        <ele>662.2</ele>
        <time>2015-10-14T13:44:35Z</time>
      </trkpt>
      <trkpt lat="43.34013" lon="5.69898">
        <ele>661.9</ele>
        <time>2015-10-14T13:44:36Z</time>
      </trkpt>
      <trkpt lat="43.34001" lon="5.6994">
        <ele>659.5</ele>
        <time>2015-10-14T13:45:08Z</time>
      </trkpt>
      <trkpt lat="43.3399" lon="5.69958">
        <ele>659.2</ele>
        <time>2015-10-14T13:45:25Z</time>
      </trkpt>
      <trkpt lat="43.33973" lon="5.69955">
        <ele>658.2</ele>
        <time>2015-10-14T13:45:45Z</time>
      </trkpt>
      <trkpt lat="43.33972" lon="5.69955">
        <ele>658.4</ele>
        <time>2015-10-14T13:45:46Z</time>
      </trkpt>
    </trkseg>
  </trk>
</gpx>